Wetterdaten: Montag, 26.12.2022
Datum Zeit Temp. Aussen Temp. o. S. Temp +5cm Feuchte Auss Luftdruck Regen Sonnenschein Regendauer Solar Windben Empfang
26.12.2022 00:00 10,7 C 10,0 C 8,3 C 99 % 1010,5 hPa 0,0 l/m 0 min 0 min 0 W/m 6,4 km/h (2 Bft) 100,00 %
26.12.2022 00:02 10,7 C 10,0 C 8,3 C 99 % 1010,4 hPa 0,0 l/m 0 min 0 min 0 W/m 3,2 km/h (1 Bft) 97,56 %
26.12.2022 00:04 10,7 C 10,0 C 8,3 C 99 % 1010,5 hPa 0,0 l/m 0 min 0 min 0 W/m 6,4 km/h (2 Bft) 100,00 %
26.12.2022 00:08 10,7 C 10,0 C 8,3 C 99 % 1010,4 hPa 0,0 l/m 0 min 0 min 0 W/m 6,4 km/h (2 Bft) 98,96 %
26.12.2022 00:10 10,7 C 10,0 C 8,3 C 99 % 1010,5 hPa 0,0 l/m 0 min 0 min 0 W/m 12,9 km/h (3 Bft) 100,00 %
26.12.2022 00:12 10,7 C 10,0 C 8,3 C 99 % 1010,5 hPa 0,0 l/m 0 min 0 min 0 W/m 9,7 km/h (2 Bft) 100,00 %
26.12.2022 00:14 10,7 C 10,0 C 8,3 C 99 % 1010,5 hPa 0,0 l/m 0 min 0 min 0 W/m 6,4 km/h (2 Bft) 100,00 %
26.12.2022 00:16 10,7 C 10,0 C 8,3 C 99 % 1010,6 hPa 0,0 l/m 0 min 0 min 0 W/m 3,2 km/h (1 Bft) 100,00 %
26.12.2022 00:18 10,8 C 10,0 C 8,3 C 99 % 1010,5 hPa 0,0 l/m 0 min 0 min 0 W/m 3,2 km/h (1 Bft) 100,00 %
26.12.2022 00:20 10,7 C 10,0 C 8,3 C 99 % 1010,5 hPa 0,0 l/m 0 min 0 min 0 W/m 3,2 km/h (1 Bft) 100,00 %
26.12.2022 00:22 10,7 C 10,0 C 8,3 C 99 % 1010,6 hPa 0,0 l/m 0 min 0 min 0 W/m 3,2 km/h (1 Bft) 100,00 %
26.12.2022 00:24 10,7 C 10,0 C 8,3 C 99 % 1010,6 hPa 0,0 l/m 0 min 0 min 0 W/m 3,2 km/h (1 Bft) 100,00 %
26.12.2022 00:26 10,7 C 10,0 C 8,3 C 99 % 1010,6 hPa 0,0 l/m 0 min 0 min 0 W/m 3,2 km/h (1 Bft) 100,00 %
26.12.2022 00:28 10,7 C 10,0 C 8,3 C 99 % 1010,6 hPa 0,0 l/m 0 min 0 min 0 W/m 6,4 km/h (2 Bft) 100,00 %
26.12.2022 00:30 10,7 C 10,0 C 8,3 C 99 % 1010,5 hPa 0,0 l/m 0 min 0 min 0 W/m 6,4 km/h (2 Bft) 97,87 %
26.12.2022 00:32 10,7 C 10,0 C 8,3 C 99 % 1010,5 hPa 0,0 l/m 0 min 0 min 0 W/m 6,4 km/h (2 Bft) 100,00 %
26.12.2022 00:34 10,7 C 10,0 C 8,3 C 99 % 1010,5 hPa 0,0 l/m 0 min 0 min 0 W/m 6,4 km/h (2 Bft) 100,00 %
26.12.2022 00:36 10,7 C 10,0 C 8,3 C 99 % 1010,4 hPa 0,0 l/m 0 min 0 min 0 W/m 6,4 km/h (2 Bft) 100,00 %
26.12.2022 00:38 10,7 C 10,0 C 8,3 C 99 % 1010,4 hPa 0,0 l/m 0 min 0 min 0 W/m 6,4 km/h (2 Bft) 100,00 %
26.12.2022 00:40 10,7 C 10,0 C 8,3 C 99 % 1010,5 hPa 0,0 l/m 0 min 2 min 0 W/m 9,7 km/h (2 Bft) 97,87 %
26.12.2022 00:42 10,7 C 10,0 C 8,3 C 99 % 1010,4 hPa 0,0 l/m 0 min 0 min 0 W/m 6,4 km/h (2 Bft) 100,00 %
26.12.2022 00:44 10,7 C 10,0 C 8,3 C 99 % 1010,4 hPa 0,0 l/m 0 min 0 min 0 W/m 9,7 km/h (2 Bft) 97,87 %
26.12.2022 00:46 10,7 C 10,0 C 8,3 C 99 % 1010,4 hPa 0,0 l/m 0 min 0 min 0 W/m 6,4 km/h (2 Bft) 100,00 %
26.12.2022 00:48 10,7 C 10,0 C 8,3 C 99 % 1010,4 hPa 0,0 l/m 0 min 0 min 0 W/m 9,7 km/h (2 Bft) 97,87 %
26.12.2022 00:50 10,7 C 10,0 C 8,3 C 99 % 1010,4 hPa 0,0 l/m 0 min 0 min 0 W/m 9,7 km/h (2 Bft) 97,87 %
26.12.2022 00:52 10,7 C 10,0 C 8,3 C 99 % 1010,4 hPa 0,0 l/m 0 min 0 min 0 W/m 12,9 km/h (3 Bft) 97,87 %
26.12.2022 00:54 10,7 C 10,0 C 8,3 C 99 % 1010,4 hPa 0,0 l/m 0 min 0 min 0 W/m 6,4 km/h (2 Bft) 97,83 %
26.12.2022 00:56 10,7 C 10,0 C 8,3 C 99 % 1010,3 hPa 0,0 l/m 0 min 0 min 0 W/m 9,7 km/h (2 Bft) 97,87 %
26.12.2022 00:58 10,7 C 10,0 C 8,3 C 99 % 1010,3 hPa 0,0 l/m 0 min 0 min 0 W/m 6,4 km/h (2 Bft) 97,87 %
26.12.2022 01:00 10,7 C 10,0 C 8,3 C 99 % 1010,4 hPa 0,0 l/m 0 min 2 min 0 W/m 6,4 km/h (2 Bft) 95,74 %
26.12.2022 01:02 10,7 C 10,0 C 8,3 C 99 % 1010,3 hPa 0,0 l/m 0 min 0 min 0 W/m 6,4 km/h (2 Bft) 93,62 %
26.12.2022 01:04 10,7 C 10,0 C 8,3 C 99 % 1010,3 hPa 0,0 l/m 0 min 2 min 0 W/m 6,4 km/h (2 Bft) 97,87 %
26.12.2022 01:06 10,7 C 10,0 C 8,3 C 99 % 1010,3 hPa 0,0 l/m 0 min 2 min 0 W/m 9,7 km/h (2 Bft) 95,65 %
26.12.2022 01:08 10,7 C 10,0 C 8,3 C 99 % 1010,4 hPa 0,0 l/m 0 min 2 min 0 W/m 6,4 km/h (2 Bft) 97,87 %
26.12.2022 01:10 10,7 C 10,0 C 8,3 C 99 % 1010,5 hPa 0,2 l/m 0 min 2 min 0 W/m 6,4 km/h (2 Bft) 95,74 %
26.12.2022 01:12 10,7 C 10,0 C 8,3 C 99 % 1010,5 hPa 0,0 l/m 0 min 2 min 0 W/m 6,4 km/h (2 Bft) 93,62 %
26.12.2022 01:14 10,7 C 10,0 C 8,3 C 99 % 1010,6 hPa 0,0 l/m 0 min 2 min 0 W/m 6,4 km/h (2 Bft) 95,74 %
26.12.2022 01:16 10,7 C 10,0 C 8,3 C 99 % 1010,6 hPa 0,2 l/m 0 min 2 min 0 W/m 3,2 km/h (1 Bft) 93,62 %
26.12.2022 01:18 10,7 C 10,0 C 8,3 C 99 % 1010,5 hPa 0,0 l/m 0 min 2 min 0 W/m 6,4 km/h (2 Bft) 91,49 %
26.12.2022 01:20 10,7 C 10,0 C 8,3 C 99 % 1010,4 hPa 0,0 l/m 0 min 2 min 0 W/m 9,7 km/h (2 Bft) 95,65 %
26.12.2022 01:22 10,7 C 10,0 C 8,3 C 99 % 1010,5 hPa 0,0 l/m 0 min 2 min 0 W/m 12,9 km/h (3 Bft) 93,62 %
26.12.2022 01:24 10,7 C 10,0 C 8,3 C 99 % 1010,4 hPa 0,0 l/m 0 min 2 min 0 W/m 9,7 km/h (2 Bft) 95,74 %
26.12.2022 01:26 10,7 C 10,0 C 8,3 C 99 % 1010,4 hPa 0,0 l/m 0 min 2 min 0 W/m 12,9 km/h (3 Bft) 95,74 %
26.12.2022 01:28 10,7 C 10,0 C 8,3 C 99 % 1010,4 hPa 0,0 l/m 0 min 2 min 0 W/m 6,4 km/h (2 Bft) 95,74 %
26.12.2022 01:30 10,7 C 10,0 C 8,3 C 99 % 1010,5 hPa 0,0 l/m 0 min 2 min 0 W/m 6,4 km/h (2 Bft) 93,62 %
26.12.2022 01:32 10,7 C 10,0 C 8,3 C 99 % 1010,6 hPa 0,2 l/m 0 min 2 min 0 W/m 6,4 km/h (2 Bft) 93,48 %
26.12.2022 01:34 10,6 C 10,0 C 8,3 C 99 % 1010,5 hPa 0,0 l/m 0 min 2 min 0 W/m 9,7 km/h (2 Bft) 95,74 %
26.12.2022 01:36 10,6 C 9,4 C 8,3 C 99 % 1010,6 hPa 0,0 l/m 0 min 2 min 0 W/m 12,9 km/h (3 Bft) 93,62 %
26.12.2022 01:38 10,6 C 9,4 C 8,3 C 99 % 1010,5 hPa 0,2 l/m 0 min 2 min 0 W/m 6,4 km/h (2 Bft) 95,74 %
26.12.2022 01:40 10,6 C 9,4 C 8,3 C 99 % 1010,5 hPa 0,2 l/m 0 min 2 min 0 W/m 12,9 km/h (3 Bft) 95,74 %
26.12.2022 01:42 10,6 C 9,4 C 8,3 C 99 % 1010,5 hPa 0,2 l/m 0 min 2 min 0 W/m 6,4 km/h (2 Bft) 95,74 %
26.12.2022 01:44 10,6 C 9,4 C 8,3 C 99 % 1010,6 hPa 0,0 l/m 0 min 2 min 0 W/m 6,4 km/h (2 Bft) 95,74 %
26.12.2022 01:46 10,6 C 9,4 C 8,3 C 99 % 1010,7 hPa 0,0 l/m 0 min 2 min 0 W/m 6,4 km/h (2 Bft) 95,65 %
26.12.2022 01:48 10,6 C 9,4 C 8,3 C 99 % 1010,7 hPa 0,2 l/m 0 min 2 min 0 W/m 9,7 km/h (2 Bft) 97,87 %
26.12.2022 01:50 10,5 C 9,4 C 8,3 C 99 % 1010,7 hPa 0,0 l/m 0 min 2 min 0 W/m 6,4 km/h (2 Bft) 97,87 %
26.12.2022 01:52 10,5 C 9,4 C 8,3 C 99 % 1010,8 hPa 0,0 l/m 0 min 0 min 0 W/m 6,4 km/h (2 Bft) 97,87 %
26.12.2022 01:54 10,5 C 9,4 C 8,3 C 99 % 1010,9 hPa 0,0 l/m 0 min 2 min 0 W/m 6,4 km/h (2 Bft) 95,74 %
26.12.2022 01:56 10,4 C 9,4 C 8,3 C 99 % 1010,9 hPa 0,2 l/m 0 min 2 min 0 W/m 3,2 km/h (1 Bft) 93,62 %
26.12.2022 01:58 10,4 C 9,4 C 8,3 C 99 % 1010,9 hPa 0,0 l/m 0 min 0 min 0 W/m 6,4 km/h (2 Bft) 95,65 %
26.12.2022 02:00 10,4 C 9,4 C 8,3 C 99 % 1010,9 hPa 0,0 l/m 0 min 0 min 0 W/m 6,4 km/h (2 Bft) 97,87 %
26.12.2022 02:02 10,4 C 9,4 C 8,3 C 99 % 1010,9 hPa 0,0 l/m 0 min 2 min 0 W/m 12,9 km/h (3 Bft) 95,74 %
26.12.2022 02:04 10,4 C 9,4 C 8,3 C 99 % 1010,9 hPa 0,0 l/m 0 min 2 min 0 W/m 6,4 km/h (2 Bft) 97,87 %
26.12.2022 02:06 10,4 C 9,4 C 8,3 C 99 % 1011,0 hPa 0,0 l/m 0 min 0 min 0 W/m 12,9 km/h (3 Bft) 97,87 %
26.12.2022 02:08 10,4 C 9,4 C 8,3 C 99 % 1011,0 hPa 0,0 l/m 0 min 2 min 0 W/m 6,4 km/h (2 Bft) 97,87 %
26.12.2022 02:10 10,4 C 9,4 C 8,3 C 99 % 1011,0 hPa 0,0 l/m 0 min 2 min 0 W/m 3,2 km/h (1 Bft) 95,74 %
26.12.2022 02:12 10,4 C 9,4 C 8,3 C 99 % 1011,1 hPa 0,0 l/m 0 min 2 min 0 W/m 3,2 km/h (1 Bft) 97,83 %
26.12.2022 02:14 10,4 C 9,4 C 8,3 C 99 % 1011,0 hPa 0,0 l/m 0 min 0 min 0 W/m 3,2 km/h (1 Bft) 97,87 %
26.12.2022 02:16 10,4 C 9,4 C 8,3 C 99 % 1011,0 hPa 0,0 l/m 0 min 0 min 0 W/m 3,2 km/h (1 Bft) 97,87 %
26.12.2022 02:18 10,4 C 9,4 C 8,3 C 99 % 1011,1 hPa 0,0 l/m 0 min 0 min 0 W/m 12,9 km/h (3 Bft) 97,87 %
26.12.2022 02:20 10,4 C 9,4 C 8,3 C 99 % 1011,1 hPa 0,0 l/m 0 min 2 min 0 W/m 6,4 km/h (2 Bft) 97,87 %
26.12.2022 02:22 10,4 C 9,4 C 8,3 C 99 % 1011,0 hPa 0,2 l/m 0 min 0 min 0 W/m 3,2 km/h (1 Bft) 97,87 %
26.12.2022 02:24 10,3 C 9,4 C 8,3 C 99 % 1011,0 hPa 0,0 l/m 0 min 2 min 0 W/m 12,9 km/h (3 Bft) 95,65 %
26.12.2022 02:26 10,3 C 9,4 C 8,3 C 99 % 1010,9 hPa 0,2 l/m 0 min 2 min 0 W/m 6,4 km/h (2 Bft) 100,00 %
26.12.2022 02:28 10,3 C 9,4 C 8,3 C 99 % 1011,0 hPa 0,0 l/m 0 min 2 min 0 W/m 3,2 km/h (1 Bft) 100,00 %
26.12.2022 02:30 10,3 C 9,4 C 8,3 C 99 % 1011,2 hPa 0,0 l/m 0 min 2 min 0 W/m 6,4 km/h (2 Bft) 100,00 %
26.12.2022 02:32 10,3 C 9,4 C 8,3 C 99 % 1011,2 hPa 0,0 l/m 0 min 2 min 0 W/m 6,4 km/h (2 Bft) 97,87 %
26.12.2022 02:34 10,3 C 9,4 C 8,3 C 99 % 1011,2 hPa 0,2 l/m 0 min 2 min 0 W/m 6,4 km/h (2 Bft) 100,00 %
26.12.2022 02:36 10,3 C 9,4 C 8,3 C 99 % 1011,1 hPa 0,0 l/m 0 min 2 min 0 W/m 6,4 km/h (2 Bft) 100,00 %
26.12.2022 02:38 10,3 C 9,4 C 8,3 C 99 % 1011,2 hPa 0,0 l/m 0 min 2 min 0 W/m 3,2 km/h (1 Bft) 100,00 %
26.12.2022 02:40 10,3 C 9,4 C 8,3 C 99 % 1011,2 hPa 0,0 l/m 0 min 0 min 0 W/m 6,4 km/h (2 Bft) 100,00 %
26.12.2022 02:42 10,3 C 9,4 C 8,3 C 99 % 1011,2 hPa 0,0 l/m 0 min 0 min 0 W/m 6,4 km/h (2 Bft) 100,00 %
26.12.2022 02:44 10,3 C 9,4 C 8,3 C 99 % 1011,2 hPa 0,0 l/m 0 min 0 min 0 W/m 12,9 km/h (3 Bft) 100,00 %
26.12.2022 02:46 10,3 C 9,4 C 8,3 C 99 % 1011,2 hPa 0,2 l/m 0 min 2 min 0 W/m 6,4 km/h (2 Bft) 100,00 %
26.12.2022 02:48 10,3 C 9,4 C 8,3 C 99 % 1011,2 hPa 0,0 l/m 0 min 2 min 0 W/m 9,7 km/h (2 Bft) 100,00 %
26.12.2022 02:50 10,3 C 9,4 C 8,3 C 99 % 1011,2 hPa 0,2 l/m 0 min 2 min 0 W/m 3,2 km/h (1 Bft) 100,00 %
26.12.2022 02:52 10,3 C 9,4 C 8,3 C 99 % 1011,3 hPa 0,0 l/m 0 min 2 min 0 W/m 3,2 km/h (1 Bft) 100,00 %
26.12.2022 02:54 10,3 C 9,4 C 8,3 C 99 % 1011,2 hPa 0,0 l/m 0 min 0 min 0 W/m 3,2 km/h (1 Bft) 97,87 %
26.12.2022 02:56 10,3 C 9,4 C 8,3 C 99 % 1011,1 hPa 0,0 l/m 0 min 2 min 0 W/m 3,2 km/h (1 Bft) 100,00 %
26.12.2022 02:58 10,3 C 9,4 C 8,3 C 99 % 1011,1 hPa 0,2 l/m 0 min 2 min 0 W/m 3,2 km/h (1 Bft) 97,87 %
26.12.2022 03:00 10,3 C 9,4 C 7,8 C 99 % 1011,1 hPa 0,0 l/m 0 min 2 min 0 W/m 3,2 km/h (1 Bft) 100,00 %
26.12.2022 03:02 10,3 C 9,4 C 8,3 C 99 % 1011,0 hPa 0,0 l/m 0 min 2 min 0 W/m 3,2 km/h (1 Bft) 97,83 %
26.12.2022 03:04 10,3 C 9,4 C 8,3 C 99 % 1011,0 hPa 0,0 l/m 0 min 2 min 0 W/m 9,7 km/h (2 Bft) 97,87 %
26.12.2022 03:06 10,3 C 9,4 C 8,3 C 99 % 1011,1 hPa 0,0 l/m 0 min 2 min 0 W/m 9,7 km/h (2 Bft) 100,00 %
26.12.2022 03:08 10,3 C 9,4 C 8,3 C 99 % 1011,2 hPa 0,0 l/m 0 min 2 min 0 W/m 6,4 km/h (2 Bft) 97,87 %
26.12.2022 03:10 10,3 C 9,4 C 8,3 C 99 % 1011,2 hPa 0,0 l/m 0 min 0 min 0 W/m 3,2 km/h (1 Bft) 97,87 %
26.12.2022 03:12 10,3 C 9,4 C 8,3 C 99 % 1011,3 hPa 0,0 l/m 0 min 0 min 0 W/m 6,4 km/h (2 Bft) 97,87 %
26.12.2022 03:14 10,3 C 9,4 C 8,3 C 99 % 1011,4 hPa 0,0 l/m 0 min 0 min 0 W/m 6,4 km/h (2 Bft) 97,83 %
26.12.2022 03:16 10,3 C 9,4 C 8,3 C 99 % 1011,4 hPa 0,0 l/m 0 min 0 min 0 W/m 3,2 km/h (1 Bft) 97,87 %
26.12.2022 03:18 10,3 C 9,4 C 8,3 C 99 % 1011,3 hPa 0,0 l/m 0 min 0 min 0 W/m 3,2 km/h (1 Bft) 97,87 %
26.12.2022 03:20 10,3 C 9,4 C 8,3 C 99 % 1011,3 hPa 0,0 l/m 0 min 0 min 0 W/m 3,2 km/h (1 Bft) 97,87 %
26.12.2022 03:22 10,3 C 9,4 C 8,3 C 99 % 1011,3 hPa 0,0 l/m 0 min 2 min 0 W/m 9,7 km/h (2 Bft) 97,87 %
26.12.2022 03:24 10,3 C 9,4 C 8,3 C 99 % 1011,3 hPa 0,0 l/m 0 min 2 min 0 W/m 3,2 km/h (1 Bft) 97,87 %
26.12.2022 03:26 10,3 C 9,4 C 8,3 C 99 % 1011,3 hPa 0,0 l/m 0 min 0 min 0 W/m 3,2 km/h (1 Bft) 97,83 %
26.12.2022 03:28 10,3 C 9,4 C 8,3 C 99 % 1011,3 hPa 0,0 l/m 0 min 0 min 0 W/m 0,0 km/h (0 Bft) 97,87 %
26.12.2022 03:30 10,2 C 9,4 C 8,3 C 99 % 1011,4 hPa 0,0 l/m 0 min 0 min 0 W/m 6,4 km/h (2 Bft) 93,62 %
26.12.2022 03:32 10,2 C 9,4 C 8,3 C 99 % 1011,5 hPa 0,0 l/m 0 min 0 min 0 W/m 6,4 km/h (2 Bft) 97,87 %
26.12.2022 03:34 10,2 C 9,4 C 8,3 C 99 % 1011,5 hPa 0,0 l/m 0 min 0 min 0 W/m 6,4 km/h (2 Bft) 97,87 %
26.12.2022 03:36 10,2 C 9,4 C 8,3 C 99 % 1011,5 hPa 0,0 l/m 0 min 0 min 0 W/m 6,4 km/h (2 Bft) 95,74 %
26.12.2022 03:38 10,2 C 9,4 C 8,3 C 99 % 1011,6 hPa 0,0 l/m 0 min 0 min 0 W/m 6,4 km/h (2 Bft) 100,00 %
26.12.2022 03:40 10,3 C 9,4 C 8,3 C 99 % 1011,8 hPa 0,0 l/m 0 min 0 min 0 W/m 6,4 km/h (2 Bft) 100,00 %
26.12.2022 03:42 10,3 C 9,4 C 8,3 C 99 % 1011,8 hPa 0,0 l/m 0 min 0 min 0 W/m 12,9 km/h (3 Bft) 100,00 %
26.12.2022 03:44 10,3 C 9,4 C 8,3 C 99 % 1011,6 hPa 0,0 l/m 0 min 0 min 0 W/m 12,9 km/h (3 Bft) 97,87 %
26.12.2022 03:46 10,3 C 9,4 C 8,3 C 99 % 1011,6 hPa 0,0 l/m 0 min 0 min 0 W/m 6,4 km/h (2 Bft) 97,87 %
26.12.2022 03:48 10,3 C 9,4 C 8,3 C 99 % 1011,7 hPa 0,0 l/m 0 min 0 min 0 W/m 6,4 km/h (2 Bft) 93,62 %
26.12.2022 03:50 10,3 C 9,4 C 8,3 C 99 % 1011,7 hPa 0,0 l/m 0 min 0 min 0 W/m 16,1 km/h (3 Bft) 95,74 %
26.12.2022 03:52 10,2 C 9,4 C 8,3 C 99 % 1011,7 hPa 0,0 l/m 0 min 0 min 0 W/m 12,9 km/h (3 Bft) 97,83 %
26.12.2022 03:54 10,2 C 9,4 C 8,3 C 99 % 1011,7 hPa 0,0 l/m 0 min 0 min 0 W/m 16,1 km/h (3 Bft) 95,74 %
26.12.2022 03:56 10,2 C 9,4 C 8,3 C 99 % 1011,7 hPa 0,0 l/m 0 min 0 min 0 W/m 12,9 km/h (3 Bft) 97,87 %
26.12.2022 03:58 10,2 C 9,4 C 8,3 C 99 % 1011,7 hPa 0,0 l/m 0 min 0 min 0 W/m 12,9 km/h (3 Bft) 95,74 %
26.12.2022 04:00 10,2 C 9,4 C 7,8 C 99 % 1011,6 hPa 0,0 l/m 0 min 0 min 0 W/m 9,7 km/h (2 Bft) 97,87 %
26.12.2022 04:02 10,2 C 9,4 C 7,8 C 99 % 1011,6 hPa 0,0 l/m 0 min 0 min 0 W/m 12,9 km/h (3 Bft) 100,00 %
26.12.2022 04:04 10,1 C 9,4 C 7,8 C 99 % 1011,8 hPa 0,0 l/m 0 min 0 min 0 W/m 6,4 km/h (2 Bft) 95,74 %
26.12.2022 04:06 10,1 C 9,4 C 7,8 C 99 % 1011,5 hPa 0,0 l/m 0 min 0 min 0 W/m 12,9 km/h (3 Bft) 93,48 %
26.12.2022 04:08 10,1 C 9,4 C 7,8 C 99 % 1011,5 hPa 0,0 l/m 0 min 0 min 0 W/m 6,4 km/h (2 Bft) 95,74 %
26.12.2022 04:10 10,1 C 9,4 C 7,8 C 99 % 1011,6 hPa 0,0 l/m 0 min 0 min 0 W/m 6,4 km/h (2 Bft) 97,87 %
26.12.2022 04:12 10,1 C 9,4 C 7,8 C 99 % 1011,6 hPa 0,0 l/m 0 min 0 min 0 W/m 6,4 km/h (2 Bft) 93,62 %
26.12.2022 04:14 10,0 C 9,4 C 7,8 C 99 % 1011,6 hPa 0,0 l/m 0 min 0 min 0 W/m 6,4 km/h (2 Bft) 95,92 %
26.12.2022 04:16 10,0 C 9,4 C 7,8 C 99 % 1011,6 hPa 0,0 l/m 0 min 0 min 0 W/m 3,2 km/h (1 Bft) 93,62 %
26.12.2022 04:18 9,9 C 9,4 C 7,8 C 99 % 1011,6 hPa 0,0 l/m 0 min 0 min 0 W/m 6,4 km/h (2 Bft) 93,48 %
26.12.2022 04:20 9,9 C 9,4 C 7,8 C 99 % 1011,6 hPa 0,0 l/m 0 min 0 min 0 W/m 6,4 km/h (2 Bft) 95,74 %
26.12.2022 04:22 9,9 C 9,4 C 7,8 C 99 % 1011,7 hPa 0,0 l/m 0 min 0 min 0 W/m 6,4 km/h (2 Bft) 95,74 %
26.12.2022 04:24 9,9 C 9,4 C 7,8 C 99 % 1011,7 hPa 0,0 l/m 0 min 0 min 0 W/m 12,9 km/h (3 Bft) 93,62 %
26.12.2022 04:26 9,9 C 9,4 C 7,8 C 99 % 1011,7 hPa 0,0 l/m 0 min 0 min 0 W/m 6,4 km/h (2 Bft) 91,49 %
26.12.2022 04:28 9,9 C 9,4 C 7,8 C 99 % 1011,8 hPa 0,0 l/m 0 min 0 min 0 W/m 3,2 km/h (1 Bft) 91,49 %
26.12.2022 04:30 9,9 C 9,4 C 7,8 C 99 % 1011,8 hPa 0,0 l/m 0 min 0 min 0 W/m 6,4 km/h (2 Bft) 95,65 %
26.12.2022 04:32 9,9 C 9,4 C 7,8 C 99 % 1011,8 hPa 0,0 l/m 0 min 0 min 0 W/m 6,4 km/h (2 Bft) 97,87 %
26.12.2022 04:34 9,9 C 9,4 C 7,8 C 99 % 1011,8 hPa 0,0 l/m 0 min 0 min 0 W/m 12,9 km/h (3 Bft) 93,62 %
26.12.2022 04:36 9,9 C 9,4 C 7,8 C 99 % 1011,8 hPa 0,0 l/m 0 min 0 min 0 W/m 9,7 km/h (2 Bft) 97,87 %
26.12.2022 04:38 9,9 C 9,4 C 7,8 C 99 % 1011,7 hPa 0,0 l/m 0 min 0 min 0 W/m 9,7 km/h (2 Bft) 95,74 %
26.12.2022 04:40 9,9 C 9,4 C 7,8 C 99 % 1011,7 hPa 0,0 l/m 0 min 0 min 0 W/m 3,2 km/h (1 Bft) 95,74 %
26.12.2022 04:42 9,9 C 9,4 C 7,8 C 99 % 1011,6 hPa 0,0 l/m 0 min 0 min 0 W/m 12,9 km/h (3 Bft) 95,74 %
26.12.2022 04:44 9,9 C 9,4 C 7,8 C 99 % 1011,6 hPa 0,0 l/m 0 min 0 min 0 W/m 16,1 km/h (3 Bft) 97,83 %
26.12.2022 04:46 9,9 C 9,4 C 7,8 C 99 % 1011,6 hPa 0,0 l/m 0 min 0 min 0 W/m 16,1 km/h (3 Bft) 95,74 %
26.12.2022 04:48 9,9 C 9,4 C 7,8 C 99 % 1011,6 hPa 0,0 l/m 0 min 0 min 0 W/m 9,7 km/h (2 Bft) 78,72 %
26.12.2022 04:50 9,9 C 9,4 C 7,8 C 99 % 1011,6 hPa 0,0 l/m 0 min 0 min 0 W/m 12,9 km/h (3 Bft) 76,60 %
26.12.2022 04:52 9,9 C 9,4 C 7,8 C 99 % 1011,6 hPa 0,0 l/m 0 min 0 min 0 W/m 6,4 km/h (2 Bft) 97,14 %
26.12.2022 04:54 9,9 C 9,4 C 7,8 C 99 % 1011,6 hPa 0,0 l/m 0 min 0 min 0 W/m 19,3 km/h (3 Bft) 98,31 %
26.12.2022 04:56 9,8 C 9,4 C 7,8 C 99 % 1011,7 hPa 0,0 l/m 0 min 0 min 0 W/m 6,4 km/h (2 Bft) 94,29 %
26.12.2022 04:58 9,8 C 8,9 C 7,8 C 99 % 1011,6 hPa 0,0 l/m 0 min 0 min 0 W/m 12,9 km/h (3 Bft) 95,74 %
26.12.2022 05:00 9,8 C 8,9 C 7,8 C 99 % 1011,6 hPa 0,0 l/m 0 min 0 min 0 W/m 6,4 km/h (2 Bft) 97,83 %
26.12.2022 05:02 9,8 C 8,9 C 7,8 C 99 % 1011,7 hPa 0,0 l/m 0 min 0 min 0 W/m 6,4 km/h (2 Bft) 97,87 %
26.12.2022 05:04 9,7 C 8,9 C 7,8 C 99 % 1011,6 hPa 0,0 l/m 0 min 0 min 0 W/m 3,2 km/h (1 Bft) 95,74 %
26.12.2022 05:06 9,7 C 8,9 C 7,8 C 99 % 1011,6 hPa 0,0 l/m 0 min 0 min 0 W/m 6,4 km/h (2 Bft) 93,22 %
26.12.2022 05:08 9,7 C 8,9 C 7,8 C 99 % 1011,7 hPa 0,0 l/m 0 min 0 min 0 W/m 6,4 km/h (2 Bft) 95,74 %
26.12.2022 05:10 9,7 C 8,9 C 7,8 C 99 % 1011,8 hPa 0,0 l/m 0 min 0 min 0 W/m 3,2 km/h (1 Bft) 97,83 %
26.12.2022 05:12 9,7 C 8,9 C 7,8 C 99 % 1011,8 hPa 0,0 l/m 0 min 0 min 0 W/m 6,4 km/h (2 Bft) 94,29 %
26.12.2022 05:14 9,7 C 8,9 C 7,8 C 99 % 1011,8 hPa 0,0 l/m 0 min 0 min 0 W/m 9,7 km/h (2 Bft) 95,74 %
26.12.2022 05:16 9,6 C 8,9 C 7,2 C 99 % 1011,8 hPa 0,0 l/m 0 min 0 min 0 W/m 12,9 km/h (3 Bft) 95,74 %
26.12.2022 05:18 9,6 C 8,9 C 7,2 C 99 % 1012,0 hPa 0,0 l/m 0 min 0 min 0 W/m 3,2 km/h (1 Bft) 97,87 %
26.12.2022 05:20 9,6 C 8,9 C 7,2 C 99 % 1011,9 hPa 0,0 l/m 0 min 0 min 0 W/m 3,2 km/h (1 Bft) 95,74 %
26.12.2022 05:22 9,6 C 8,9 C 7,2 C 99 % 1011,9 hPa 0,0 l/m 0 min 0 min 0 W/m 6,4 km/h (2 Bft) 97,87 %
26.12.2022 05:24 9,6 C 8,9 C 7,2 C 99 % 1011,8 hPa 0,0 l/m 0 min 0 min 0 W/m 3,2 km/h (1 Bft) 97,87 %
26.12.2022 05:26 9,6 C 8,9 C 7,2 C 99 % 1011,9 hPa 0,0 l/m 0 min 0 min 0 W/m 3,2 km/h (1 Bft) 97,83 %
26.12.2022 05:28 9,5 C 8,9 C 7,2 C 99 % 1011,9 hPa 0,0 l/m 0 min 0 min 0 W/m 3,2 km/h (1 Bft) 95,74 %
26.12.2022 05:30 9,5 C 8,9 C 7,2 C 99 % 1011,7 hPa 0,0 l/m 0 min 0 min 0 W/m 3,2 km/h (1 Bft) 95,74 %
26.12.2022 05:32 9,5 C 8,9 C 7,2 C 99 % 1011,8 hPa 0,0 l/m 0 min 0 min 0 W/m 3,2 km/h (1 Bft) 97,87 %
26.12.2022 05:34 9,4 C 8,9 C 7,2 C 99 % 1011,8 hPa 0,0 l/m 0 min 0 min 0 W/m 3,2 km/h (1 Bft) 97,87 %
26.12.2022 05:36 9,4 C 8,9 C 7,2 C 99 % 1011,9 hPa 0,0 l/m 0 min 0 min 0 W/m 3,2 km/h (1 Bft) 100,00 %
26.12.2022 05:38 9,4 C 8,9 C 7,2 C 99 % 1011,8 hPa 0,0 l/m 0 min 0 min 0 W/m 6,4 km/h (2 Bft) 97,83 %
26.12.2022 05:40 9,4 C 8,9 C 7,2 C 99 % 1011,9 hPa 0,0 l/m 0 min 0 min 0 W/m 3,2 km/h (1 Bft) 100,00 %
26.12.2022 05:42 9,4 C 8,9 C 7,2 C 99 % 1011,9 hPa 0,0 l/m 0 min 0 min 0 W/m 0,0 km/h (0 Bft) 100,00 %
26.12.2022 05:44 9,4 C 8,9 C 7,2 C 99 % 1011,9 hPa 0,0 l/m 0 min 0 min 0 W/m 6,4 km/h (2 Bft) 100,00 %
26.12.2022 05:46 9,4 C 8,9 C 7,2 C 99 % 1011,9 hPa 0,0 l/m 0 min 0 min 0 W/m 9,7 km/h (2 Bft) 100,00 %
26.12.2022 05:48 9,4 C 8,9 C 7,2 C 99 % 1012,0 hPa 0,0 l/m 0 min 0 min 0 W/m 6,4 km/h (2 Bft) 95,74 %
26.12.2022 05:50 9,4 C 8,9 C 7,2 C 99 % 1011,9 hPa 0,0 l/m 0 min 0 min 0 W/m 3,2 km/h (1 Bft) 100,00 %
26.12.2022 05:52 9,4 C 8,9 C 7,2 C 99 % 1011,9 hPa 0,0 l/m 0 min 0 min 0 W/m 3,2 km/h (1 Bft) 97,83 %
26.12.2022 05:54 9,4 C 8,9 C 7,2 C 99 % 1011,9 hPa 0,0 l/m 0 min 0 min 0 W/m 6,4 km/h (2 Bft) 100,00 %
26.12.2022 05:56 9,4 C 8,9 C 7,2 C 99 % 1011,9 hPa 0,0 l/m 0 min 0 min 0 W/m 6,4 km/h (2 Bft) 97,87 %
26.12.2022 05:58 9,4 C 8,9 C 7,2 C 99 % 1011,9 hPa 0,0 l/m 0 min 0 min 0 W/m 16,1 km/h (3 Bft) 100,00 %
26.12.2022 06:00 9,4 C 8,9 C 7,2 C 99 % 1012,0 hPa 0,0 l/m 0 min 0 min 0 W/m 12,9 km/h (3 Bft) 100,00 %
26.12.2022 06:02 9,4 C 8,9 C 7,2 C 99 % 1012,0 hPa 0,0 l/m 0 min 0 min 0 W/m 6,4 km/h (2 Bft) 97,87 %
26.12.2022 06:04 9,4 C 8,9 C 7,2 C 99 % 1011,9 hPa 0,0 l/m 0 min 0 min 0 W/m 9,7 km/h (2 Bft) 100,00 %
26.12.2022 06:08 9,4 C 8,9 C 7,2 C 99 % 1011,9 hPa 0,0 l/m 0 min 0 min 0 W/m 6,4 km/h (2 Bft) 97,87 %
26.12.2022 06:10 9,4 C 8,9 C 7,2 C 99 % 1011,9 hPa 0,0 l/m 0 min 0 min 0 W/m 6,4 km/h (2 Bft) 97,87 %
26.12.2022 06:12 9,4 C 8,9 C 7,2 C 99 % 1011,9 hPa 0,0 l/m 0 min 0 min 0 W/m 6,4 km/h (2 Bft) 97,87 %
26.12.2022 06:14 9,4 C 8,9 C 7,2 C 99 % 1011,9 hPa 0,0 l/m 0 min 0 min 0 W/m 6,4 km/h (2 Bft) 95,74 %
26.12.2022 06:16 9,5 C 8,9 C 7,2 C 99 % 1011,9 hPa 0,0 l/m 0 min 0 min 0 W/m 12,9 km/h (3 Bft) 97,83 %
26.12.2022 06:18 9,5 C 8,9 C 7,2 C 99 % 1012,0 hPa 0,0 l/m 0 min 0 min 0 W/m 6,4 km/h (2 Bft) 100,00 %
26.12.2022 06:20 9,5 C 8,9 C 7,2 C 99 % 1012,0 hPa 0,0 l/m 0 min 0 min 0 W/m 12,9 km/h (3 Bft) 100,00 %
26.12.2022 06:22 9,5 C 8,9 C 7,2 C 99 % 1012,0 hPa 0,0 l/m 0 min 0 min 0 W/m 6,4 km/h (2 Bft) 100,00 %
26.12.2022 06:24 9,5 C 8,9 C 7,2 C 99 % 1012,0 hPa 0,0 l/m 0 min 0 min 0 W/m 3,2 km/h (1 Bft) 100,00 %
26.12.2022 06:26 9,5 C 8,9 C 7,2 C 99 % 1012,0 hPa 0,0 l/m 0 min 0 min 0 W/m 6,4 km/h (2 Bft) 100,00 %
26.12.2022 06:28 9,5 C 8,9 C 7,2 C 99 % 1012,2 hPa 0,0 l/m 0 min 0 min 0 W/m 6,4 km/h (2 Bft) 100,00 %
26.12.2022 06:30 9,5 C 8,9 C 7,2 C 99 % 1012,1 hPa 0,0 l/m 0 min 0 min 0 W/m 12,9 km/h (3 Bft) 100,00 %
26.12.2022 06:32 9,5 C 8,9 C 7,2 C 99 % 1012,2 hPa 0,0 l/m 0 min 0 min 0 W/m 6,4 km/h (2 Bft) 97,87 %
26.12.2022 06:34 9,5 C 8,9 C 7,2 C 99 % 1012,2 hPa 0,0 l/m 0 min 0 min 0 W/m 16,1 km/h (3 Bft) 95,74 %
26.12.2022 06:36 9,5 C 8,9 C 7,2 C 99 % 1012,1 hPa 0,0 l/m 0 min 0 min 0 W/m 6,4 km/h (2 Bft) 97,87 %
26.12.2022 06:38 9,5 C 8,9 C 7,2 C 99 % 1012,2 hPa 0,0 l/m 0 min 0 min 0 W/m 9,7 km/h (2 Bft) 100,00 %
26.12.2022 06:40 9,5 C 8,9 C 7,2 C 99 % 1012,2 hPa 0,0 l/m 0 min 0 min 0 W/m 6,4 km/h (2 Bft) 100,00 %
26.12.2022 06:42 9,6 C 8,9 C 7,2 C 99 % 1012,1 hPa 0,0 l/m 0 min 0 min 0 W/m 3,2 km/h (1 Bft) 97,83 %
26.12.2022 06:44 9,5 C 8,9 C 7,2 C 99 % 1012,2 hPa 0,0 l/m 0 min 0 min 0 W/m 6,4 km/h (2 Bft) 95,74 %
26.12.2022 06:46 9,5 C 8,9 C 7,2 C 99 % 1012,1 hPa 0,0 l/m 0 min 0 min 0 W/m 12,9 km/h (3 Bft) 95,74 %
26.12.2022 06:48 9,6 C 8,9 C 7,2 C 99 % 1012,1 hPa 0,0 l/m 0 min 0 min 0 W/m 3,2 km/h (1 Bft) 95,74 %
26.12.2022 06:50 9,6 C 8,9 C 7,2 C 99 % 1012,2 hPa 0,0 l/m 0 min 0 min 0 W/m 6,4 km/h (2 Bft) 91,49 %
26.12.2022 06:52 9,6 C 8,9 C 7,2 C 99 % 1012,2 hPa 0,0 l/m 0 min 0 min 0 W/m 6,4 km/h (2 Bft) 95,74 %
26.12.2022 06:54 9,5 C 8,9 C 7,2 C 99 % 1012,1 hPa 0,0 l/m 0 min 0 min 0 W/m 3,2 km/h (1 Bft) 95,74 %
26.12.2022 06:56 9,5 C 8,9 C 7,2 C 99 % 1012,0 hPa 0,0 l/m 0 min 0 min 0 W/m 3,2 km/h (1 Bft) 93,48 %
26.12.2022 06:58 9,5 C 8,9 C 7,2 C 99 % 1012,0 hPa 0,0 l/m 0 min 0 min 0 W/m 6,4 km/h (2 Bft) 93,62 %
26.12.2022 07:00 9,6 C 8,9 C 7,2 C 99 % 1012,0 hPa 0,0 l/m 0 min 0 min 0 W/m 6,4 km/h (2 Bft) 93,62 %
26.12.2022 07:02 9,6 C 8,9 C 7,2 C 99 % 1012,0 hPa 0,0 l/m 0 min 0 min 0 W/m 3,2 km/h (1 Bft) 91,49 %
26.12.2022 07:04 9,6 C 8,9 C 7,2 C 99 % 1012,0 hPa 0,0 l/m 0 min 0 min 0 W/m 12,9 km/h (3 Bft) 91,49 %
26.12.2022 07:06 9,6 C 8,9 C 7,2 C 99 % 1012,0 hPa 0,0 l/m 0 min 0 min 0 W/m 16,1 km/h (3 Bft) 93,10 %
26.12.2022 07:08 9,6 C 8,9 C 7,2 C 99 % 1011,9 hPa 0,0 l/m 0 min 0 min 0 W/m 6,4 km/h (2 Bft) 91,43 %
26.12.2022 07:10 9,6 C 8,9 C 7,2 C 99 % 1011,8 hPa 0,0 l/m 0 min 0 min 0 W/m 6,4 km/h (2 Bft) 93,62 %
26.12.2022 07:12 9,6 C 8,9 C 7,2 C 99 % 1012,0 hPa 0,0 l/m 0 min 0 min 0 W/m 9,7 km/h (2 Bft) 95,74 %
26.12.2022 07:14 9,6 C 8,9 C 7,2 C 99 % 1012,0 hPa 0,0 l/m 0 min 0 min 0 W/m 16,1 km/h (3 Bft) 93,62 %
26.12.2022 07:16 9,6 C 8,9 C 7,2 C 99 % 1012,0 hPa 0,0 l/m 0 min 0 min 0 W/m 6,4 km/h (2 Bft) 91,49 %
26.12.2022 07:18 9,6 C 8,9 C 7,2 C 99 % 1012,1 hPa 0,0 l/m 0 min 0 min 0 W/m 12,9 km/h (3 Bft) 93,62 %
26.12.2022 07:20 9,6 C 8,9 C 7,2 C 99 % 1012,0 hPa 0,0 l/m 0 min 0 min 0 W/m 16,1 km/h (3 Bft) 93,48 %
26.12.2022 07:22 9,7 C 8,9 C 7,2 C 99 % 1012,1 hPa 0,0 l/m 0 min 0 min 0 W/m 9,7 km/h (2 Bft) 89,36 %
26.12.2022 07:24 9,7 C 9,4 C 7,2 C 99 % 1012,1 hPa 0,0 l/m 0 min 0 min 0 W/m 12,9 km/h (3 Bft) 93,62 %
26.12.2022 07:26 9,7 C 9,4 C 7,8 C 99 % 1012,2 hPa 0,0 l/m 0 min 0 min 0 W/m 16,1 km/h (3 Bft) 91,49 %
26.12.2022 07:28 9,7 C 9,4 C 7,8 C 99 % 1012,2 hPa 0,0 l/m 0 min 0 min 0 W/m 12,9 km/h (3 Bft) 95,74 %
26.12.2022 07:30 9,7 C 9,4 C 7,8 C 99 % 1012,2 hPa 0,0 l/m 0 min 0 min 0 W/m 16,1 km/h (3 Bft) 95,74 %
26.12.2022 07:32 9,7 C 9,4 C 7,8 C 99 % 1012,2 hPa 0,0 l/m 0 min 0 min 0 W/m 12,9 km/h (3 Bft) 100,00 %
26.12.2022 07:34 9,7 C 9,4 C 7,8 C 99 % 1012,2 hPa 0,0 l/m 0 min 0 min 0 W/m 6,4 km/h (2 Bft) 97,83 %
26.12.2022 07:36 9,7 C 9,4 C 7,2 C 99 % 1012,2 hPa 0,0 l/m 0 min 0 min 0 W/m 9,7 km/h (2 Bft) 97,87 %
26.12.2022 07:38 9,7 C 9,4 C 7,2 C 99 % 1012,0 hPa 0,0 l/m 0 min 0 min 0 W/m 12,9 km/h (3 Bft) 97,87 %
26.12.2022 07:40 9,7 C 9,4 C 7,8 C 98 % 1012,0 hPa 0,0 l/m 0 min 0 min 0 W/m 9,7 km/h (2 Bft) 97,87 %
26.12.2022 07:42 9,7 C 9,4 C 7,2 C 99 % 1012,0 hPa 0,0 l/m 0 min 0 min 0 W/m 6,4 km/h (2 Bft) 100,00 %
26.12.2022 07:44 9,7 C 9,4 C 7,2 C 99 % 1012,1 hPa 0,0 l/m 0 min 0 min 0 W/m 9,7 km/h (2 Bft) 100,00 %
26.12.2022 07:46 9,7 C 8,9 C 7,2 C 98 % 1012,1 hPa 0,0 l/m 0 min 0 min 0 W/m 3,2 km/h (1 Bft) 95,65 %
26.12.2022 07:48 9,7 C 8,9 C 7,2 C 99 % 1012,1 hPa 0,0 l/m 0 min 0 min 0 W/m 12,9 km/h (3 Bft) 100,00 %
26.12.2022 07:50 9,7 C 8,9 C 7,2 C 99 % 1012,2 hPa 0,0 l/m 0 min 0 min 0 W/m 12,9 km/h (3 Bft) 100,00 %
26.12.2022 07:52 9,7 C 8,9 C 7,2 C 99 % 1012,2 hPa 0,0 l/m 0 min 0 min 0 W/m 12,9 km/h (3 Bft) 100,00 %
26.12.2022 07:54 9,7 C 8,9 C 7,2 C 99 % 1012,1 hPa 0,0 l/m 0 min 0 min 0 W/m 16,1 km/h (3 Bft) 100,00 %
26.12.2022 07:56 9,7 C 9,4 C 7,8 C 99 % 1012,2 hPa 0,0 l/m 0 min 0 min 0 W/m 16,1 km/h (3 Bft) 100,00 %
26.12.2022 07:58 9,8 C 9,4 C 7,8 C 99 % 1012,2 hPa 0,0 l/m 0 min 0 min 0 W/m 25,7 km/h (4 Bft) 100,00 %
26.12.2022 08:00 9,8 C 9,4 C 7,8 C 99 % 1012,3 hPa 0,0 l/m 0 min 0 min 0 W/m 22,5 km/h (4 Bft) 100,00 %
26.12.2022 08:02 9,8 C 9,4 C 7,8 C 99 % 1012,3 hPa 0,0 l/m 0 min 0 min 0 W/m 16,1 km/h (3 Bft) 100,00 %
26.12.2022 08:04 9,8 C 9,4 C 7,8 C 99 % 1012,3 hPa 0,0 l/m 0 min 0 min 0 W/m 22,5 km/h (4 Bft) 97,87 %
26.12.2022 08:06 9,8 C 9,4 C 7,8 C 99 % 1012,3 hPa 0,0 l/m 0 min 0 min 0 W/m 19,3 km/h (3 Bft) 100,00 %
26.12.2022 08:08 9,8 C 9,4 C 7,8 C 98 % 1012,3 hPa 0,0 l/m 0 min 0 min 0 W/m 16,1 km/h (3 Bft) 97,87 %
26.12.2022 08:10 9,8 C 9,4 C 7,8 C 98 % 1012,4 hPa 0,0 l/m 0 min 0 min 0 W/m 29,0 km/h (5 Bft) 100,00 %
26.12.2022 08:12 9,8 C 9,4 C 7,8 C 98 % 1012,4 hPa 0,0 l/m 0 min 0 min 0 W/m 19,3 km/h (3 Bft) 100,00 %
26.12.2022 08:14 9,8 C 9,4 C 7,2 C 98 % 1012,4 hPa 0,0 l/m 0 min 0 min 0 W/m 12,9 km/h (3 Bft) 97,87 %
26.12.2022 08:16 9,8 C 9,4 C 7,2 C 98 % 1012,5 hPa 0,0 l/m 0 min 0 min 0 W/m 12,9 km/h (3 Bft) 97,87 %
26.12.2022 08:18 9,8 C 9,4 C 7,2 C 98 % 1012,4 hPa 0,0 l/m 0 min 0 min 0 W/m 19,3 km/h (3 Bft) 95,74 %
26.12.2022 08:20 9,8 C 9,4 C 7,2 C 98 % 1012,5 hPa 0,0 l/m 0 min 0 min 0 W/m 16,1 km/h (3 Bft) 100,00 %
26.12.2022 08:22 9,8 C 9,4 C 7,2 C 98 % 1012,6 hPa 0,0 l/m 0 min 0 min 0 W/m 19,3 km/h (3 Bft) 100,00 %
26.12.2022 08:24 9,8 C 9,4 C 7,2 C 98 % 1012,6 hPa 0,0 l/m 0 min 0 min 0 W/m 22,5 km/h (4 Bft) 100,00 %
26.12.2022 08:26 9,8 C 9,4 C 7,2 C 98 % 1012,6 hPa 0,0 l/m 0 min 0 min 0 W/m 25,7 km/h (4 Bft) 100,00 %
26.12.2022 08:28 9,8 C 9,4 C 7,2 C 98 % 1012,5 hPa 0,0 l/m 0 min 0 min 0 W/m 19,3 km/h (3 Bft) 100,00 %
26.12.2022 08:30 9,8 C 9,4 C 7,2 C 98 % 1012,5 hPa 0,0 l/m 0 min 0 min 0 W/m 19,3 km/h (3 Bft) 97,87 %
26.12.2022 08:32 9,8 C 9,4 C 7,2 C 98 % 1012,5 hPa 0,0 l/m 0 min 0 min 0 W/m 12,9 km/h (3 Bft) 97,87 %
26.12.2022 08:34 9,8 C 8,9 C 7,2 C 98 % 1012,6 hPa 0,0 l/m 0 min 0 min 0 W/m 12,9 km/h (3 Bft) 100,00 %
26.12.2022 08:36 9,8 C 8,9 C 7,2 C 98 % 1012,7 hPa 0,0 l/m 0 min 0 min 0 W/m 9,7 km/h (2 Bft) 100,00 %
26.12.2022 08:38 9,8 C 8,9 C 7,2 C 98 % 1012,8 hPa 0,0 l/m 0 min 0 min 0 W/m 9,7 km/h (2 Bft) 100,00 %
26.12.2022 08:40 9,8 C 8,9 C 7,2 C 98 % 1012,8 hPa 0,0 l/m 0 min 0 min 0 W/m 12,9 km/h (3 Bft) 100,00 %
26.12.2022 08:42 9,8 C 9,4 C 7,2 C 98 % 1012,8 hPa 0,0 l/m 0 min 0 min 0 W/m 16,1 km/h (3 Bft) 100,00 %
26.12.2022 08:44 9,8 C 9,4 C 7,2 C 98 % 1012,8 hPa 0,0 l/m 0 min 0 min 0 W/m 9,7 km/h (2 Bft) 100,00 %
26.12.2022 08:46 9,8 C 9,4 C 7,2 C 98 % 1012,9 hPa 0,0 l/m 0 min 0 min 0 W/m 16,1 km/h (3 Bft) 100,00 %
26.12.2022 08:48 9,8 C 9,4 C 7,2 C 98 % 1012,9 hPa 0,0 l/m 0 min 0 min 0 W/m 12,9 km/h (3 Bft) 100,00 %
26.12.2022 08:50 9,8 C 9,4 C 7,2 C 98 % 1012,9 hPa 0,0 l/m 0 min 0 min 0 W/m 3,2 km/h (1 Bft) 97,87 %
26.12.2022 08:52 9,8 C 9,4 C 7,2 C 98 % 1012,9 hPa 0,0 l/m 0 min 0 min 0 W/m 16,1 km/h (3 Bft) 97,87 %
26.12.2022 08:54 9,8 C 9,4 C 7,2 C 98 % 1012,8 hPa 0,0 l/m 0 min 0 min 0 W/m 9,7 km/h (2 Bft) 97,87 %
26.12.2022 08:56 9,8 C 9,4 C 7,2 C 98 % 1012,8 hPa 0,0 l/m 0 min 0 min 0 W/m 12,9 km/h (3 Bft) 97,87 %
26.12.2022 08:58 9,8 C 9,4 C 7,2 C 98 % 1012,8 hPa 0,0 l/m 0 min 0 min 0 W/m 12,9 km/h (3 Bft) 97,87 %
26.12.2022 09:00 9,8 C 9,4 C 7,2 C 97 % 1012,8 hPa 0,0 l/m 0 min 0 min 3 W/m 6,4 km/h (2 Bft) 97,83 %
26.12.2022 09:02 9,8 C 9,4 C 7,2 C 97 % 1012,8 hPa 0,0 l/m 0 min 0 min 6 W/m 9,7 km/h (2 Bft) 93,62 %
26.12.2022 09:04 9,8 C 9,4 C 7,2 C 97 % 1012,8 hPa 0,0 l/m 0 min 0 min 8 W/m 12,9 km/h (3 Bft) 95,74 %
26.12.2022 09:06 9,7 C 9,4 C 7,2 C 97 % 1012,8 hPa 0,0 l/m 0 min 0 min 9 W/m 12,9 km/h (3 Bft) 97,87 %
26.12.2022 09:08 9,7 C 9,4 C 7,2 C 97 % 1012,8 hPa 0,0 l/m 0 min 0 min 8 W/m 12,9 km/h (3 Bft) 97,87 %
26.12.2022 09:10 9,7 C 9,4 C 7,2 C 97 % 1012,8 hPa 0,0 l/m 0 min 0 min 7 W/m 12,9 km/h (3 Bft) 97,87 %
26.12.2022 09:12 9,7 C 9,4 C 7,2 C 97 % 1012,8 hPa 0,0 l/m 0 min 0 min 9 W/m 12,9 km/h (3 Bft) 94,59 %
26.12.2022 09:14 9,7 C 9,4 C 7,2 C 97 % 1012,7 hPa 0,0 l/m 0 min 0 min 11 W/m 12,9 km/h (3 Bft) 95,74 %
26.12.2022 09:16 9,7 C 9,4 C 7,2 C 97 % 1012,7 hPa 0,0 l/m 0 min 0 min 9 W/m 19,3 km/h (3 Bft) 95,65 %
26.12.2022 09:18 9,8 C 9,4 C 7,2 C 97 % 1012,7 hPa 0,0 l/m 0 min 0 min 10 W/m 9,7 km/h (2 Bft) 95,74 %
26.12.2022 09:20 9,8 C 9,4 C 7,2 C 97 % 1012,8 hPa 0,0 l/m 0 min 0 min 11 W/m 12,9 km/h (3 Bft) 91,49 %
26.12.2022 09:22 9,8 C 9,4 C 7,2 C 97 % 1012,8 hPa 0,0 l/m 0 min 0 min 12 W/m 12,9 km/h (3 Bft) 97,87 %
26.12.2022 09:24 9,8 C 9,4 C 7,2 C 97 % 1012,8 hPa 0,0 l/m 0 min 0 min 13 W/m 6,4 km/h (2 Bft) 97,87 %
26.12.2022 09:26 9,8 C 9,4 C 7,2 C 97 % 1012,8 hPa 0,0 l/m 0 min 0 min 14 W/m 16,1 km/h (3 Bft) 91,49 %
26.12.2022 09:28 9,7 C 9,4 C 7,2 C 97 % 1012,8 hPa 0,0 l/m 0 min 0 min 14 W/m 6,4 km/h (2 Bft) 97,83 %
26.12.2022 09:30 9,7 C 9,4 C 7,2 C 97 % 1012,9 hPa 0,0 l/m 0 min 0 min 14 W/m 12,9 km/h (3 Bft) 97,87 %
26.12.2022 09:32 9,7 C 8,9 C 7,2 C 97 % 1012,9 hPa 0,0 l/m 0 min 0 min 14 W/m 16,1 km/h (3 Bft) 93,62 %
26.12.2022 09:34 9,7 C 8,9 C 7,2 C 96 % 1012,9 hPa 0,0 l/m 0 min 0 min 14 W/m 19,3 km/h (3 Bft) 97,87 %
26.12.2022 09:36 9,7 C 9,4 C 7,2 C 96 % 1013,0 hPa 0,0 l/m 0 min 0 min 15 W/m 12,9 km/h (3 Bft) 97,87 %
26.12.2022 09:38 9,7 C 9,4 C 7,2 C 96 % 1013,0 hPa 0,0 l/m 0 min 0 min 12 W/m 25,7 km/h (4 Bft) 95,74 %
26.12.2022 09:40 9,7 C 9,4 C 7,2 C 96 % 1013,1 hPa 0,0 l/m 0 min 0 min 14 W/m 25,7 km/h (4 Bft) 97,87 %
26.12.2022 09:42 9,7 C 9,4 C 7,2 C 96 % 1013,1 hPa 0,0 l/m 0 min 0 min 13 W/m 12,9 km/h (3 Bft) 97,83 %
26.12.2022 09:44 9,7 C 9,4 C 7,2 C 96 % 1013,1 hPa 0,0 l/m 0 min 0 min 12 W/m 19,3 km/h (3 Bft) 93,62 %
26.12.2022 09:46 9,7 C 8,9 C 7,2 C 96 % 1013,2 hPa 0,0 l/m 0 min 0 min 14 W/m 16,1 km/h (3 Bft) 95,74 %
26.12.2022 09:48 9,7 C 9,4 C 7,2 C 96 % 1013,1 hPa 0,0 l/m 0 min 0 min 17 W/m 12,9 km/h (3 Bft) 97,87 %
26.12.2022 09:50 9,7 C 9,4 C 7,2 C 96 % 1013,2 hPa 0,0 l/m 0 min 0 min 17 W/m 12,9 km/h (3 Bft) 91,49 %
26.12.2022 09:52 9,7 C 9,4 C 7,2 C 96 % 1013,2 hPa 0,0 l/m 0 min 0 min 13 W/m 19,3 km/h (3 Bft) 95,74 %
26.12.2022 09:54 9,7 C 9,4 C 7,2 C 96 % 1013,2 hPa 0,0 l/m 0 min 0 min 14 W/m 19,3 km/h (3 Bft) 97,83 %
26.12.2022 09:56 9,8 C 9,4 C 7,2 C 96 % 1013,2 hPa 0,0 l/m 0 min 0 min 14 W/m 16,1 km/h (3 Bft) 95,74 %
26.12.2022 09:58 9,8 C 9,4 C 7,2 C 96 % 1013,2 hPa 0,0 l/m 0 min 0 min 14 W/m 12,9 km/h (3 Bft) 97,87 %
26.12.2022 10:00 9,8 C 9,4 C 7,2 C 96 % 1013,2 hPa 0,0 l/m 0 min 0 min 16 W/m 25,7 km/h (4 Bft) 97,87 %
26.12.2022 10:02 9,8 C 9,4 C 7,2 C 96 % 1013,2 hPa 0,0 l/m 0 min 0 min 14 W/m 12,9 km/h (3 Bft) 91,49 %
26.12.2022 10:04 9,8 C 9,4 C 7,2 C 95 % 1013,2 hPa 0,0 l/m 0 min 0 min 14 W/m 19,3 km/h (3 Bft) 97,87 %
26.12.2022 10:06 9,8 C 9,4 C 7,2 C 95 % 1013,2 hPa 0,0 l/m 0 min 0 min 16 W/m 25,7 km/h (4 Bft) 96,55 %
26.12.2022 10:08 9,9 C 9,4 C 7,2 C 95 % 1013,2 hPa 0,0 l/m 0 min 0 min 16 W/m 12,9 km/h (3 Bft) 97,14 %
26.12.2022 10:10 9,9 C 9,4 C 7,2 C 95 % 1013,1 hPa 0,0 l/m 0 min 0 min 18 W/m 12,9 km/h (3 Bft) 97,87 %
26.12.2022 10:12 9,9 C 9,4 C 7,2 C 95 % 1013,1 hPa 0,0 l/m 0 min 0 min 18 W/m 9,7 km/h (2 Bft) 97,87 %
26.12.2022 10:14 9,8 C 9,4 C 7,2 C 95 % 1013,2 hPa 0,0 l/m 0 min 0 min 19 W/m 12,9 km/h (3 Bft) 93,62 %
26.12.2022 10:16 9,8 C 9,4 C 7,2 C 95 % 1013,2 hPa 0,0 l/m 0 min 0 min 24 W/m 25,7 km/h (4 Bft) 97,87 %
26.12.2022 10:18 9,8 C 9,4 C 7,2 C 95 % 1013,2 hPa 0,0 l/m 0 min 0 min 28 W/m 6,4 km/h (2 Bft) 95,74 %
26.12.2022 10:20 9,8 C 9,4 C 7,2 C 95 % 1013,3 hPa 0,0 l/m 0 min 0 min 29 W/m 16,1 km/h (3 Bft) 95,65 %
26.12.2022 10:22 9,8 C 9,4 C 7,2 C 95 % 1013,3 hPa 0,0 l/m 0 min 0 min 30 W/m 12,9 km/h (3 Bft) 97,87 %
26.12.2022 10:24 9,8 C 9,4 C 7,2 C 95 % 1013,3 hPa 0,0 l/m 0 min 0 min 34 W/m 19,3 km/h (3 Bft) 97,87 %
26.12.2022 10:26 9,8 C 9,4 C 7,2 C 95 % 1013,3 hPa 0,0 l/m 0 min 0 min 40 W/m 12,9 km/h (3 Bft) 95,74 %
26.12.2022 10:28 9,8 C 9,4 C 7,2 C 95 % 1013,4 hPa 0,0 l/m 0 min 0 min 39 W/m 12,9 km/h (3 Bft) 95,74 %
26.12.2022 10:30 9,8 C 9,4 C 7,2 C 95 % 1013,4 hPa 0,0 l/m 0 min 0 min 48 W/m 16,1 km/h (3 Bft) 97,87 %
26.12.2022 10:32 9,8 C 9,4 C 7,2 C 94 % 1013,4 hPa 0,0 l/m 0 min 0 min 53 W/m 22,5 km/h (4 Bft) 95,74 %
26.12.2022 10:34 9,8 C 9,4 C 7,2 C 94 % 1013,4 hPa 0,0 l/m 0 min 0 min 55 W/m 29,0 km/h (5 Bft) 97,83 %
26.12.2022 10:36 9,9 C 9,4 C 7,2 C 94 % 1013,4 hPa 0,0 l/m 0 min 0 min 53 W/m 16,1 km/h (3 Bft) 93,62 %
26.12.2022 10:38 9,9 C 9,4 C 7,2 C 94 % 1013,5 hPa 0,0 l/m 0 min 0 min 63 W/m 16,1 km/h (3 Bft) 100,00 %
26.12.2022 10:40 9,9 C 9,4 C 7,2 C 94 % 1013,6 hPa 0,0 l/m 0 min 0 min 72 W/m 16,1 km/h (3 Bft) 100,00 %
26.12.2022 10:42 9,9 C 9,4 C 7,2 C 94 % 1013,6 hPa 0,0 l/m 0 min 0 min 54 W/m 16,1 km/h (3 Bft) 100,00 %
26.12.2022 10:44 9,9 C 9,4 C 7,2 C 94 % 1013,7 hPa 0,0 l/m 0 min 0 min 45 W/m 19,3 km/h (3 Bft) 95,74 %
26.12.2022 10:46 10,0 C 10,0 C 7,2 C 94 % 1013,7 hPa 0,0 l/m 0 min 0 min 62 W/m 16,1 km/h (3 Bft) 95,65 %
26.12.2022 10:48 10,0 C 10,0 C 7,2 C 94 % 1013,7 hPa 0,0 l/m 0 min 0 min 66 W/m 9,7 km/h (2 Bft) 97,87 %
26.12.2022 10:50 10,0 C 10,0 C 7,2 C 94 % 1013,8 hPa 0,0 l/m 0 min 0 min 47 W/m 12,9 km/h (3 Bft) 97,87 %
26.12.2022 10:52 10,1 C 10,0 C 7,2 C 94 % 1013,7 hPa 0,0 l/m 0 min 0 min 40 W/m 16,1 km/h (3 Bft) 97,87 %
26.12.2022 10:54 10,1 C 9,4 C 7,2 C 93 % 1013,8 hPa 0,0 l/m 0 min 0 min 34 W/m 19,3 km/h (3 Bft) 95,74 %
26.12.2022 10:56 10,1 C 9,4 C 7,2 C 93 % 1013,8 hPa 0,0 l/m 0 min 0 min 49 W/m 12,9 km/h (3 Bft) 97,87 %
26.12.2022 10:58 10,1 C 10,0 C 7,2 C 93 % 1013,8 hPa 0,0 l/m 0 min 0 min 85 W/m 29,0 km/h (5 Bft) 97,83 %
26.12.2022 11:00 10,1 C 10,0 C 7,2 C 93 % 1013,8 hPa 0,0 l/m 0 min 0 min 99 W/m 22,5 km/h (4 Bft) 97,87 %
26.12.2022 11:02 10,1 C 10,0 C 7,2 C 93 % 1013,8 hPa 0,0 l/m 0 min 0 min 107 W/m 19,3 km/h (3 Bft) 93,62 %
26.12.2022 11:04 10,2 C 10,0 C 7,2 C 93 % 1013,8 hPa 0,0 l/m 0 min 0 min 98 W/m 16,1 km/h (3 Bft) 95,74 %
26.12.2022 11:06 10,2 C 10,0 C 7,2 C 93 % 1013,9 hPa 0,0 l/m 0 min 0 min 80 W/m 16,1 km/h (3 Bft) 97,87 %
26.12.2022 11:08 10,2 C 10,0 C 7,8 C 93 % 1013,9 hPa 0,0 l/m 0 min 0 min 76 W/m 19,3 km/h (3 Bft) 97,87 %
26.12.2022 11:10 10,2 C 10,0 C 7,8 C 92 % 1013,8 hPa 0,0 l/m 0 min 0 min 68 W/m 16,1 km/h (3 Bft) 97,83 %
26.12.2022 11:12 10,2 C 10,0 C 7,8 C 92 % 1013,8 hPa 0,0 l/m 0 min 0 min 62 W/m 22,5 km/h (4 Bft) 95,74 %
26.12.2022 11:14 10,2 C 10,0 C 7,8 C 92 % 1013,8 hPa 0,0 l/m 0 min 0 min 58 W/m 16,1 km/h (3 Bft) 97,87 %
26.12.2022 11:16 10,2 C 10,0 C 7,8 C 92 % 1013,8 hPa 0,0 l/m 0 min 0 min 59 W/m 29,0 km/h (5 Bft) 100,00 %
26.12.2022 11:18 10,2 C 10,0 C 7,8 C 92 % 1013,7 hPa 0,0 l/m 0 min 0 min 56 W/m 16,1 km/h (3 Bft) 100,00 %
26.12.2022 11:20 10,2 C 10,0 C 7,8 C 92 % 1013,7 hPa 0,0 l/m 0 min 0 min 58 W/m 22,5 km/h (4 Bft) 100,00 %
26.12.2022 11:22 10,3 C 10,0 C 7,8 C 92 % 1013,7 hPa 0,0 l/m 0 min 0 min 68 W/m 16,1 km/h (3 Bft) 100,00 %
26.12.2022 11:24 10,3 C 10,0 C 7,8 C 92 % 1013,7 hPa 0,0 l/m 0 min 0 min 86 W/m 12,9 km/h (3 Bft) 100,00 %
26.12.2022 11:26 10,3 C 10,0 C 7,8 C 92 % 1013,6 hPa 0,0 l/m 0 min 0 min 93 W/m 22,5 km/h (4 Bft) 97,87 %
26.12.2022 11:28 10,3 C 10,0 C 7,8 C 92 % 1013,6 hPa 0,0 l/m 0 min 0 min 74 W/m 29,0 km/h (5 Bft) 100,00 %
26.12.2022 11:30 10,3 C 10,0 C 7,8 C 92 % 1013,6 hPa 0,0 l/m 0 min 0 min 79 W/m 16,1 km/h (3 Bft) 97,87 %
26.12.2022 11:32 10,3 C 10,0 C 7,8 C 92 % 1013,6 hPa 0,0 l/m 0 min 0 min 96 W/m 22,5 km/h (4 Bft) 97,87 %
26.12.2022 11:34 10,4 C 10,6 C 7,8 C 92 % 1013,6 hPa 0,0 l/m 0 min 0 min 105 W/m 12,9 km/h (3 Bft) 100,00 %
26.12.2022 11:36 10,4 C 10,6 C 7,8 C 92 % 1013,6 hPa 0,0 l/m 0 min 0 min 76 W/m 19,3 km/h (3 Bft) 97,87 %
26.12.2022 11:38 10,4 C 10,6 C 7,8 C 91 % 1013,5 hPa 0,0 l/m 0 min 0 min 74 W/m 12,9 km/h (3 Bft) 97,83 %
26.12.2022 11:40 10,4 C 10,0 C 7,8 C 91 % 1013,6 hPa 0,0 l/m 0 min 0 min 63 W/m 19,3 km/h (3 Bft) 97,87 %
26.12.2022 11:42 10,5 C 10,0 C 7,8 C 91 % 1013,5 hPa 0,0 l/m 0 min 0 min 79 W/m 19,3 km/h (3 Bft) 100,00 %
26.12.2022 11:44 10,5 C 10,0 C 7,8 C 91 % 1013,6 hPa 0,0 l/m 0 min 0 min 91 W/m 32,2 km/h (5 Bft) 97,87 %
26.12.2022 11:46 10,6 C 10,6 C 7,8 C 91 % 1013,9 hPa 0,0 l/m 0 min 0 min 103 W/m 22,5 km/h (4 Bft) 95,74 %
26.12.2022 11:48 10,6 C 10,6 C 7,8 C 91 % 1013,7 hPa 0,0 l/m 0 min 0 min 118 W/m 12,9 km/h (3 Bft) 98,11 %
26.12.2022 11:50 10,7 C 11,1 C 8,3 C 91 % 1013,7 hPa 0,0 l/m 0 min 0 min 121 W/m 22,5 km/h (4 Bft) 97,87 %
26.12.2022 11:52 10,8 C 11,1 C 8,3 C 91 % 1013,6 hPa 0,0 l/m 0 min 0 min 126 W/m 16,1 km/h (3 Bft) 97,87 %
26.12.2022 11:54 10,8 C 11,1 C 8,3 C 91 % 1013,7 hPa 0,0 l/m 0 min 0 min 96 W/m 12,9 km/h (3 Bft) 97,87 %
26.12.2022 11:56 10,8 C 11,1 C 8,3 C 91 % 1013,7 hPa 0,0 l/m 0 min 0 min 92 W/m 19,3 km/h (3 Bft) 97,87 %
26.12.2022 11:58 10,9 C 11,1 C 8,3 C 90 % 1013,7 hPa 0,0 l/m 0 min 0 min 111 W/m 22,5 km/h (4 Bft) 97,87 %
26.12.2022 12:00 10,9 C 11,1 C 8,3 C 90 % 1013,6 hPa 0,0 l/m 0 min 0 min 121 W/m 19,3 km/h (3 Bft) 93,48 %
26.12.2022 12:02 10,9 C 11,1 C 8,3 C 90 % 1013,6 hPa 0,0 l/m 0 min 0 min 99 W/m 29,0 km/h (5 Bft) 93,62 %
26.12.2022 12:04 10,9 C 10,6 C 8,3 C 89 % 1013,5 hPa 0,0 l/m 0 min 0 min 86 W/m 22,5 km/h (4 Bft) 97,87 %
26.12.2022 12:08 10,9 C 10,6 C 8,3 C 89 % 1013,6 hPa 0,0 l/m 0 min 0 min 78 W/m 32,2 km/h (5 Bft) 97,92 %
26.12.2022 12:10 10,9 C 10,6 C 8,3 C 89 % 1013,6 hPa 0,0 l/m 0 min 0 min 106 W/m 35,4 km/h (5 Bft) 97,87 %
26.12.2022 12:12 10,9 C 10,6 C 8,3 C 89 % 1013,5 hPa 0,0 l/m 0 min 0 min 82 W/m 29,0 km/h (5 Bft) 97,83 %
26.12.2022 12:14 10,9 C 11,1 C 8,3 C 89 % 1013,6 hPa 0,0 l/m 0 min 0 min 107 W/m 35,4 km/h (5 Bft) 97,87 %
26.12.2022 12:16 10,9 C 11,1 C 8,3 C 89 % 1013,6 hPa 0,0 l/m 0 min 0 min 146 W/m 19,3 km/h (3 Bft) 97,87 %
26.12.2022 12:18 11,0 C 11,7 C 8,9 C 89 % 1013,6 hPa 0,0 l/m 2 min 0 min 194 W/m 12,9 km/h (3 Bft) 97,87 %
26.12.2022 12:20 11,1 C 11,7 C 8,9 C 89 % 1013,5 hPa 0,0 l/m 2 min 0 min 162 W/m 16,1 km/h (3 Bft) 97,87 %
26.12.2022 12:22 11,1 C 11,1 C 8,9 C 89 % 1013,5 hPa 0,0 l/m 0 min 0 min 93 W/m 16,1 km/h (3 Bft) 93,62 %
26.12.2022 12:24 11,1 C 11,1 C 8,9 C 89 % 1013,6 hPa 0,0 l/m 0 min 0 min 106 W/m 22,5 km/h (4 Bft) 97,87 %
26.12.2022 12:26 11,1 C 11,1 C 8,9 C 88 % 1013,6 hPa 0,0 l/m 0 min 0 min 110 W/m 25,7 km/h (4 Bft) 97,87 %
26.12.2022 12:28 11,1 C 11,1 C 8,9 C 88 % 1013,7 hPa 0,0 l/m 0 min 0 min 87 W/m 19,3 km/h (3 Bft) 97,83 %
26.12.2022 12:30 11,1 C 11,1 C 8,9 C 88 % 1013,7 hPa 0,0 l/m 0 min 0 min 79 W/m 25,7 km/h (4 Bft) 91,49 %
26.12.2022 12:32 11,1 C 10,6 C 8,9 C 88 % 1013,7 hPa 0,0 l/m 0 min 0 min 78 W/m 9,7 km/h (2 Bft) 97,87 %
26.12.2022 12:34 11,1 C 10,6 C 8,9 C 88 % 1013,7 hPa 0,0 l/m 0 min 0 min 84 W/m 19,3 km/h (3 Bft) 95,74 %
26.12.2022 12:36 11,1 C 10,6 C 8,3 C 88 % 1013,7 hPa 0,0 l/m 0 min 0 min 66 W/m 29,0 km/h (5 Bft) 97,87 %
26.12.2022 12:38 11,1 C 10,6 C 8,3 C 88 % 1013,7 hPa 0,0 l/m 0 min 0 min 50 W/m 22,5 km/h (4 Bft) 100,00 %
26.12.2022 12:40 11,1 C 10,6 C 8,3 C 88 % 1013,7 hPa 0,0 l/m 0 min 0 min 48 W/m 41,8 km/h (6 Bft) 97,83 %
26.12.2022 12:42 11,0 C 10,6 C 8,3 C 88 % 1013,7 hPa 0,0 l/m 0 min 0 min 65 W/m 38,6 km/h (5 Bft) 97,87 %
26.12.2022 12:44 11,0 C 10,6 C 8,3 C 88 % 1013,6 hPa 0,0 l/m 0 min 0 min 92 W/m 22,5 km/h (4 Bft) 97,87 %
26.12.2022 12:46 10,9 C 10,6 C 8,3 C 89 % 1013,7 hPa 0,0 l/m 0 min 0 min 113 W/m 22,5 km/h (4 Bft) 97,87 %
26.12.2022 12:48 10,9 C 10,6 C 8,3 C 89 % 1013,6 hPa 0,0 l/m 0 min 0 min 92 W/m 22,5 km/h (4 Bft) 95,74 %
26.12.2022 12:50 10,9 C 10,6 C 8,3 C 89 % 1013,7 hPa 0,0 l/m 0 min 0 min 90 W/m 16,1 km/h (3 Bft) 94,29 %
26.12.2022 12:52 10,9 C 10,6 C 8,3 C 89 % 1013,7 hPa 0,0 l/m 0 min 0 min 88 W/m 19,3 km/h (3 Bft) 93,62 %
26.12.2022 12:54 10,8 C 10,6 C 8,3 C 89 % 1013,7 hPa 0,0 l/m 0 min 0 min 91 W/m 19,3 km/h (3 Bft) 95,74 %
26.12.2022 12:56 10,8 C 10,6 C 8,3 C 89 % 1013,7 hPa 0,0 l/m 0 min 0 min 99 W/m 22,5 km/h (4 Bft) 94,83 %
26.12.2022 12:58 10,8 C 10,6 C 8,3 C 89 % 1013,7 hPa 0,0 l/m 0 min 0 min 129 W/m 22,5 km/h (4 Bft) 95,74 %
26.12.2022 13:00 10,8 C 11,1 C 8,3 C 89 % 1013,6 hPa 0,0 l/m 2 min 0 min 166 W/m 19,3 km/h (3 Bft) 94,29 %
26.12.2022 13:02 10,8 C 11,1 C 8,3 C 89 % 1013,6 hPa 0,0 l/m 0 min 0 min 135 W/m 16,1 km/h (3 Bft) 94,92 %
26.12.2022 13:04 10,8 C 11,1 C 8,3 C 89 % 1013,7 hPa 0,0 l/m 0 min 0 min 114 W/m 19,3 km/h (3 Bft) 95,74 %
26.12.2022 13:06 10,8 C 11,1 C 8,3 C 89 % 1013,8 hPa 0,0 l/m 0 min 0 min 95 W/m 16,1 km/h (3 Bft) 93,48 %
26.12.2022 13:08 10,8 C 10,6 C 8,3 C 88 % 1013,9 hPa 0,0 l/m 0 min 0 min 83 W/m 22,5 km/h (4 Bft) 95,74 %
26.12.2022 13:10 10,8 C 10,6 C 8,3 C 88 % 1013,9 hPa 0,0 l/m 0 min 0 min 86 W/m 12,9 km/h (3 Bft) 100,00 %
26.12.2022 13:12 10,8 C 10,6 C 8,3 C 88 % 1013,9 hPa 0,0 l/m 0 min 0 min 76 W/m 19,3 km/h (3 Bft) 94,00 %
26.12.2022 13:14 10,8 C 10,6 C 8,3 C 88 % 1014,0 hPa 0,0 l/m 0 min 0 min 44 W/m 29,0 km/h (5 Bft) 95,74 %
26.12.2022 13:16 10,8 C 10,6 C 8,3 C 88 % 1014,0 hPa 0,0 l/m 0 min 0 min 48 W/m 29,0 km/h (5 Bft) 95,74 %
26.12.2022 13:18 10,8 C 10,6 C 8,3 C 88 % 1014,0 hPa 0,0 l/m 0 min 0 min 46 W/m 29,0 km/h (5 Bft) 95,74 %
26.12.2022 13:20 10,8 C 10,0 C 8,3 C 88 % 1014,0 hPa 0,0 l/m 0 min 0 min 50 W/m 19,3 km/h (3 Bft) 97,83 %
26.12.2022 13:22 10,8 C 10,0 C 7,8 C 88 % 1014,0 hPa 0,0 l/m 0 min 0 min 44 W/m 16,1 km/h (3 Bft) 97,87 %
26.12.2022 13:24 10,7 C 10,0 C 7,8 C 88 % 1014,0 hPa 0,0 l/m 0 min 0 min 37 W/m 25,7 km/h (4 Bft) 95,74 %
26.12.2022 13:26 10,7 C 10,0 C 7,8 C 88 % 1014,0 hPa 0,0 l/m 0 min 0 min 38 W/m 19,3 km/h (3 Bft) 97,87 %
26.12.2022 13:28 10,7 C 10,0 C 7,8 C 88 % 1014,0 hPa 0,0 l/m 0 min 0 min 36 W/m 12,9 km/h (3 Bft) 95,74 %
26.12.2022 13:30 10,6 C 10,0 C 7,8 C 89 % 1014,0 hPa 0,0 l/m 0 min 0 min 34 W/m 19,3 km/h (3 Bft) 100,00 %
26.12.2022 13:32 10,6 C 10,0 C 7,8 C 89 % 1014,0 hPa 0,0 l/m 0 min 0 min 55 W/m 16,1 km/h (3 Bft) 97,87 %
26.12.2022 13:34 10,6 C 10,0 C 7,8 C 89 % 1014,0 hPa 0,0 l/m 0 min 0 min 87 W/m 16,1 km/h (3 Bft) 100,00 %
26.12.2022 13:36 10,6 C 10,0 C 7,8 C 89 % 1013,9 hPa 0,0 l/m 0 min 0 min 64 W/m 19,3 km/h (3 Bft) 97,87 %
26.12.2022 13:38 10,6 C 10,0 C 7,8 C 89 % 1014,0 hPa 0,0 l/m 0 min 0 min 60 W/m 16,1 km/h (3 Bft) 100,00 %
26.12.2022 13:40 10,5 C 10,0 C 7,8 C 89 % 1014,0 hPa 0,0 l/m 0 min 0 min 53 W/m 32,2 km/h (5 Bft) 100,00 %
26.12.2022 13:42 10,5 C 10,0 C 7,8 C 89 % 1014,0 hPa 0,0 l/m 0 min 0 min 34 W/m 25,7 km/h (4 Bft) 100,00 %
26.12.2022 13:44 10,4 C 10,0 C 7,8 C 89 % 1014,1 hPa 0,0 l/m 0 min 0 min 14 W/m 12,9 km/h (3 Bft) 100,00 %
26.12.2022 13:46 10,4 C 10,0 C 7,8 C 90 % 1014,2 hPa 0,0 l/m 0 min 0 min 8 W/m 19,3 km/h (3 Bft) 97,83 %
26.12.2022 13:48 10,3 C 9,4 C 7,8 C 90 % 1014,4 hPa 0,0 l/m 0 min 2 min 6 W/m 32,2 km/h (5 Bft) 97,87 %
26.12.2022 13:50 10,1 C 8,9 C 7,2 C 88 % 1014,4 hPa 0,0 l/m 0 min 2 min 9 W/m 19,3 km/h (3 Bft) 95,74 %
26.12.2022 13:52 9,8 C 8,9 C 6,7 C 87 % 1014,3 hPa 0,0 l/m 0 min 2 min 24 W/m 22,5 km/h (4 Bft) 100,00 %
26.12.2022 13:54 9,6 C 8,9 C 6,7 C 86 % 1014,5 hPa 0,0 l/m 0 min 2 min 44 W/m 25,7 km/h (4 Bft) 100,00 %
26.12.2022 13:56 9,5 C 8,3 C 6,7 C 86 % 1014,5 hPa 0,0 l/m 0 min 0 min 37 W/m 12,9 km/h (3 Bft) 100,00 %
26.12.2022 13:58 9,4 C 8,3 C 6,7 C 87 % 1014,5 hPa 0,0 l/m 0 min 0 min 43 W/m 12,9 km/h (3 Bft) 100,00 %
26.12.2022 14:00 9,3 C 8,3 C 6,7 C 87 % 1014,5 hPa 0,0 l/m 0 min 0 min 48 W/m 12,9 km/h (3 Bft) 100,00 %
26.12.2022 14:02 9,2 C 8,3 C 6,7 C 87 % 1014,6 hPa 0,0 l/m 0 min 0 min 43 W/m 25,7 km/h (4 Bft) 93,62 %
26.12.2022 14:04 9,2 C 8,3 C 6,7 C 87 % 1014,5 hPa 0,0 l/m 0 min 0 min 44 W/m 16,1 km/h (3 Bft) 100,00 %
26.12.2022 14:06 9,1 C 8,3 C 6,7 C 87 % 1014,6 hPa 0,0 l/m 0 min 0 min 47 W/m 9,7 km/h (2 Bft) 100,00 %
26.12.2022 14:08 9,1 C 8,3 C 6,7 C 87 % 1014,5 hPa 0,0 l/m 0 min 0 min 44 W/m 16,1 km/h (3 Bft) 100,00 %
26.12.2022 14:10 9,1 C 8,3 C 6,7 C 87 % 1014,6 hPa 0,0 l/m 0 min 0 min 58 W/m 12,9 km/h (3 Bft) 97,87 %
26.12.2022 14:12 9,1 C 8,3 C 6,7 C 87 % 1014,7 hPa 0,0 l/m 0 min 0 min 79 W/m 19,3 km/h (3 Bft) 100,00 %
26.12.2022 14:14 9,1 C 8,9 C 6,7 C 87 % 1014,7 hPa 0,0 l/m 0 min 0 min 84 W/m 16,1 km/h (3 Bft) 100,00 %
26.12.2022 14:16 9,1 C 8,9 C 6,7 C 87 % 1014,7 hPa 0,0 l/m 0 min 0 min 75 W/m 9,7 km/h (2 Bft) 97,87 %
26.12.2022 14:18 9,1 C 8,3 C 6,7 C 88 % 1014,7 hPa 0,0 l/m 0 min 0 min 63 W/m 12,9 km/h (3 Bft) 100,00 %
26.12.2022 14:20 9,0 C 8,3 C 6,7 C 88 % 1014,7 hPa 0,0 l/m 0 min 0 min 57 W/m 12,9 km/h (3 Bft) 97,87 %
26.12.2022 14:22 9,0 C 8,3 C 6,7 C 88 % 1014,7 hPa 0,0 l/m 0 min 0 min 68 W/m 19,3 km/h (3 Bft) 100,00 %
26.12.2022 14:24 9,0 C 8,3 C 6,7 C 88 % 1014,7 hPa 0,0 l/m 0 min 0 min 64 W/m 9,7 km/h (2 Bft) 97,87 %
26.12.2022 14:26 9,0 C 8,3 C 6,7 C 88 % 1014,8 hPa 0,0 l/m 0 min 0 min 53 W/m 9,7 km/h (2 Bft) 97,83 %
26.12.2022 14:28 9,0 C 8,3 C 6,7 C 88 % 1014,8 hPa 0,0 l/m 0 min 0 min 46 W/m 9,7 km/h (2 Bft) 100,00 %
26.12.2022 14:30 9,0 C 8,3 C 6,7 C 88 % 1014,8 hPa 0,0 l/m 0 min 0 min 53 W/m 6,4 km/h (2 Bft) 100,00 %
26.12.2022 14:32 9,0 C 8,3 C 6,7 C 88 % 1014,8 hPa 0,0 l/m 0 min 0 min 53 W/m 9,7 km/h (2 Bft) 95,74 %
26.12.2022 14:34 9,0 C 8,3 C 6,7 C 89 % 1014,9 hPa 0,0 l/m 0 min 0 min 51 W/m 6,4 km/h (2 Bft) 95,74 %
26.12.2022 14:36 9,0 C 8,3 C 6,7 C 89 % 1014,9 hPa 0,0 l/m 0 min 0 min 47 W/m 9,7 km/h (2 Bft) 97,87 %
26.12.2022 14:38 9,0 C 8,3 C 6,7 C 89 % 1014,9 hPa 0,0 l/m 0 min 0 min 47 W/m 9,7 km/h (2 Bft) 97,83 %
26.12.2022 14:40 9,0 C 8,3 C 6,7 C 89 % 1014,9 hPa 0,0 l/m 0 min 0 min 46 W/m 3,2 km/h (1 Bft) 97,87 %
26.12.2022 14:42 9,0 C 8,3 C 6,1 C 89 % 1014,9 hPa 0,0 l/m 0 min 0 min 39 W/m 9,7 km/h (2 Bft) 97,87 %
26.12.2022 14:44 8,9 C 8,3 C 6,1 C 89 % 1015,0 hPa 0,0 l/m 0 min 0 min 34 W/m 12,9 km/h (3 Bft) 97,87 %
26.12.2022 14:46 8,9 C 8,3 C 6,1 C 89 % 1014,9 hPa 0,0 l/m 0 min 0 min 41 W/m 9,7 km/h (2 Bft) 97,87 %
26.12.2022 14:48 8,9 C 8,3 C 6,1 C 89 % 1014,9 hPa 0,0 l/m 0 min 0 min 42 W/m 12,9 km/h (3 Bft) 97,87 %
26.12.2022 14:50 8,8 C 8,3 C 6,1 C 89 % 1014,9 hPa 0,0 l/m 0 min 0 min 43 W/m 16,1 km/h (3 Bft) 93,48 %
26.12.2022 14:52 8,8 C 8,3 C 6,1 C 88 % 1014,9 hPa 0,0 l/m 0 min 0 min 51 W/m 22,5 km/h (4 Bft) 95,74 %
26.12.2022 14:54 8,8 C 8,3 C 6,1 C 88 % 1015,0 hPa 0,0 l/m 0 min 0 min 63 W/m 22,5 km/h (4 Bft) 95,74 %
26.12.2022 14:56 8,7 C 8,3 C 6,1 C 87 % 1014,9 hPa 0,0 l/m 0 min 0 min 71 W/m 29,0 km/h (5 Bft) 95,74 %
26.12.2022 14:58 8,7 C 8,3 C 6,1 C 86 % 1014,9 hPa 0,0 l/m 0 min 0 min 71 W/m 25,7 km/h (4 Bft) 95,74 %
26.12.2022 15:00 8,6 C 8,3 C 6,1 C 86 % 1015,0 hPa 0,0 l/m 0 min 0 min 67 W/m 19,3 km/h (3 Bft) 95,74 %
26.12.2022 15:02 8,6 C 8,3 C 6,1 C 85 % 1015,1 hPa 0,0 l/m 0 min 0 min 61 W/m 12,9 km/h (3 Bft) 91,49 %
26.12.2022 15:04 8,6 C 8,3 C 6,1 C 85 % 1015,0 hPa 0,0 l/m 0 min 0 min 57 W/m 19,3 km/h (3 Bft) 97,83 %
26.12.2022 15:06 8,5 C 8,3 C 6,1 C 85 % 1015,1 hPa 0,0 l/m 0 min 0 min 56 W/m 12,9 km/h (3 Bft) 93,62 %
26.12.2022 15:08 8,5 C 7,8 C 5,6 C 85 % 1015,1 hPa 0,0 l/m 0 min 0 min 54 W/m 12,9 km/h (3 Bft) 95,74 %
26.12.2022 15:10 8,5 C 7,8 C 5,6 C 85 % 1015,2 hPa 0,0 l/m 0 min 0 min 49 W/m 16,1 km/h (3 Bft) 95,74 %
26.12.2022 15:12 8,4 C 7,8 C 5,6 C 85 % 1015,2 hPa 0,0 l/m 0 min 0 min 43 W/m 12,9 km/h (3 Bft) 95,74 %
26.12.2022 15:14 8,4 C 7,8 C 5,6 C 85 % 1015,2 hPa 0,0 l/m 0 min 0 min 35 W/m 16,1 km/h (3 Bft) 95,74 %
26.12.2022 15:16 8,5 C 7,8 C 5,6 C 85 % 1015,2 hPa 0,0 l/m 0 min 0 min 32 W/m 12,9 km/h (3 Bft) 95,65 %
26.12.2022 15:18 8,5 C 7,8 C 5,6 C 85 % 1015,3 hPa 0,0 l/m 0 min 0 min 28 W/m 12,9 km/h (3 Bft) 93,62 %
26.12.2022 15:20 8,4 C 7,8 C 5,6 C 85 % 1015,3 hPa 0,0 l/m 0 min 0 min 30 W/m 12,9 km/h (3 Bft) 91,49 %
26.12.2022 15:22 8,4 C 7,8 C 5,6 C 85 % 1015,4 hPa 0,0 l/m 0 min 0 min 31 W/m 12,9 km/h (3 Bft) 93,62 %
26.12.2022 15:24 8,4 C 7,8 C 5,6 C 85 % 1015,5 hPa 0,0 l/m 0 min 0 min 27 W/m 9,7 km/h (2 Bft) 95,74 %
26.12.2022 15:26 8,4 C 7,8 C 5,6 C 85 % 1015,5 hPa 0,0 l/m 0 min 0 min 25 W/m 9,7 km/h (2 Bft) 97,87 %
26.12.2022 15:28 8,4 C 7,8 C 5,6 C 86 % 1015,5 hPa 0,0 l/m 0 min 0 min 26 W/m 6,4 km/h (2 Bft) 97,83 %
26.12.2022 15:30 8,4 C 7,8 C 5,6 C 86 % 1015,6 hPa 0,0 l/m 0 min 0 min 27 W/m 9,7 km/h (2 Bft) 95,74 %
26.12.2022 15:32 8,4 C 7,8 C 5,6 C 86 % 1015,7 hPa 0,0 l/m 0 min 0 min 31 W/m 12,9 km/h (3 Bft) 95,74 %
26.12.2022 15:34 8,4 C 7,8 C 5,6 C 86 % 1015,7 hPa 0,0 l/m 0 min 0 min 29 W/m 6,4 km/h (2 Bft) 97,87 %
26.12.2022 15:36 8,4 C 7,8 C 5,6 C 86 % 1015,8 hPa 0,0 l/m 0 min 0 min 24 W/m 6,4 km/h (2 Bft) 97,87 %
26.12.2022 15:38 8,4 C 7,8 C 5,6 C 87 % 1015,8 hPa 0,0 l/m 0 min 0 min 19 W/m 12,9 km/h (3 Bft) 97,87 %
26.12.2022 15:40 8,3 C 7,8 C 5,6 C 87 % 1015,8 hPa 0,0 l/m 0 min 0 min 19 W/m 19,3 km/h (3 Bft) 97,87 %
26.12.2022 15:42 8,3 C 7,8 C 5,6 C 87 % 1015,9 hPa 0,0 l/m 0 min 0 min 17 W/m 16,1 km/h (3 Bft) 100,00 %
26.12.2022 15:44 8,2 C 7,8 C 5,6 C 87 % 1015,9 hPa 0,0 l/m 0 min 0 min 15 W/m 12,9 km/h (3 Bft) 97,87 %
26.12.2022 15:46 8,2 C 7,8 C 5,6 C 87 % 1015,9 hPa 0,0 l/m 0 min 0 min 13 W/m 16,1 km/h (3 Bft) 97,87 %
26.12.2022 15:48 8,2 C 7,2 C 5,0 C 87 % 1015,9 hPa 0,0 l/m 0 min 0 min 12 W/m 9,7 km/h (2 Bft) 95,74 %
26.12.2022 15:50 8,1 C 7,2 C 5,0 C 87 % 1016,0 hPa 0,0 l/m 0 min 0 min 13 W/m 9,7 km/h (2 Bft) 97,87 %
26.12.2022 15:52 8,1 C 7,2 C 5,0 C 87 % 1016,0 hPa 0,0 l/m 0 min 0 min 12 W/m 12,9 km/h (3 Bft) 97,87 %
26.12.2022 15:54 8,1 C 7,2 C 5,0 C 87 % 1016,0 hPa 0,0 l/m 0 min 0 min 17 W/m 12,9 km/h (3 Bft) 97,83 %
26.12.2022 15:56 8,0 C 7,2 C 5,0 C 87 % 1016,0 hPa 0,0 l/m 0 min 0 min 24 W/m 12,9 km/h (3 Bft) 97,87 %
26.12.2022 15:58 8,0 C 7,2 C 5,0 C 87 % 1016,1 hPa 0,0 l/m 0 min 0 min 22 W/m 12,9 km/h (3 Bft) 97,87 %
26.12.2022 16:00 7,9 C 7,2 C 5,0 C 87 % 1016,1 hPa 0,0 l/m 0 min 0 min 27 W/m 19,3 km/h (3 Bft) 95,74 %
26.12.2022 16:02 7,9 C 7,2 C 5,0 C 87 % 1016,0 hPa 0,0 l/m 2 min 0 min 32 W/m 22,5 km/h (4 Bft) 97,87 %
26.12.2022 16:04 7,9 C 7,2 C 5,0 C 87 % 1016,1 hPa 0,0 l/m 2 min 0 min 33 W/m 16,1 km/h (3 Bft) 95,74 %
26.12.2022 16:06 7,9 C 7,2 C 5,0 C 87 % 1016,1 hPa 0,0 l/m 2 min 0 min 25 W/m 19,3 km/h (3 Bft) 100,00 %
26.12.2022 16:08 7,8 C 7,2 C 5,0 C 86 % 1016,1 hPa 0,0 l/m 2 min 0 min 21 W/m 16,1 km/h (3 Bft) 97,83 %
26.12.2022 16:10 7,8 C 7,2 C 5,0 C 86 % 1016,1 hPa 0,0 l/m 0 min 0 min 17 W/m 19,3 km/h (3 Bft) 100,00 %
26.12.2022 16:12 7,7 C 7,2 C 5,0 C 86 % 1016,2 hPa 0,0 l/m 0 min 0 min 13 W/m 22,5 km/h (4 Bft) 97,87 %
26.12.2022 16:14 7,7 C 7,2 C 5,0 C 85 % 1016,1 hPa 0,0 l/m 0 min 0 min 12 W/m 16,1 km/h (3 Bft) 100,00 %
26.12.2022 16:16 7,7 C 7,2 C 5,0 C 85 % 1016,2 hPa 0,0 l/m 0 min 0 min 9 W/m 19,3 km/h (3 Bft) 100,00 %
26.12.2022 16:18 7,6 C 6,7 C 4,4 C 85 % 1016,2 hPa 0,0 l/m 0 min 0 min 7 W/m 9,7 km/h (2 Bft) 97,87 %
26.12.2022 16:20 7,6 C 6,7 C 4,4 C 85 % 1016,4 hPa 0,0 l/m 0 min 0 min 5 W/m 12,9 km/h (3 Bft) 97,87 %
26.12.2022 16:22 7,6 C 6,7 C 4,4 C 86 % 1016,4 hPa 0,0 l/m 0 min 0 min 3 W/m 12,9 km/h (3 Bft) 100,00 %
26.12.2022 16:24 7,6 C 6,7 C 4,4 C 86 % 1016,5 hPa 0,0 l/m 0 min 0 min 0 W/m 12,9 km/h (3 Bft) 97,87 %
26.12.2022 16:26 7,5 C 6,7 C 4,4 C 86 % 1016,5 hPa 0,0 l/m 0 min 0 min 0 W/m 9,7 km/h (2 Bft) 97,87 %
26.12.2022 16:28 7,5 C 6,7 C 4,4 C 86 % 1016,6 hPa 0,0 l/m 0 min 0 min 0 W/m 12,9 km/h (3 Bft) 97,87 %
26.12.2022 16:30 7,5 C 6,7 C 4,4 C 86 % 1016,5 hPa 0,0 l/m 0 min 0 min 0 W/m 9,7 km/h (2 Bft) 100,00 %
26.12.2022 16:32 7,4 C 6,7 C 4,4 C 87 % 1016,6 hPa 0,0 l/m 0 min 0 min 0 W/m 12,9 km/h (3 Bft) 100,00 %
26.12.2022 16:34 7,4 C 6,7 C 4,4 C 87 % 1016,7 hPa 0,0 l/m 0 min 0 min 0 W/m 16,1 km/h (3 Bft) 100,00 %
26.12.2022 16:36 7,4 C 6,7 C 4,4 C 87 % 1016,7 hPa 0,0 l/m 0 min 0 min 0 W/m 12,9 km/h (3 Bft) 100,00 %
26.12.2022 16:38 7,4 C 6,7 C 4,4 C 87 % 1016,7 hPa 0,0 l/m 0 min 0 min 0 W/m 25,7 km/h (4 Bft) 100,00 %
26.12.2022 16:40 7,3 C 6,7 C 4,4 C 87 % 1016,8 hPa 0,0 l/m 0 min 0 min 0 W/m 12,9 km/h (3 Bft) 100,00 %
26.12.2022 16:42 7,3 C 6,7 C 4,4 C 87 % 1016,9 hPa 0,0 l/m 0 min 0 min 0 W/m 9,7 km/h (2 Bft) 100,00 %
26.12.2022 16:44 7,3 C 6,7 C 4,4 C 87 % 1017,0 hPa 0,0 l/m 0 min 0 min 0 W/m 12,9 km/h (3 Bft) 95,74 %
26.12.2022 16:46 7,3 C 6,7 C 4,4 C 87 % 1017,1 hPa 0,0 l/m 0 min 0 min 0 W/m 9,7 km/h (2 Bft) 100,00 %
26.12.2022 16:48 7,2 C 6,7 C 4,4 C 87 % 1017,1 hPa 0,0 l/m 0 min 0 min 0 W/m 12,9 km/h (3 Bft) 97,87 %
26.12.2022 16:50 7,2 C 6,7 C 4,4 C 87 % 1017,1 hPa 0,0 l/m 0 min 0 min 0 W/m 12,9 km/h (3 Bft) 93,62 %
26.12.2022 16:52 7,2 C 6,7 C 4,4 C 87 % 1017,2 hPa 0,0 l/m 0 min 0 min 0 W/m 16,1 km/h (3 Bft) 97,87 %
26.12.2022 16:54 7,2 C 6,1 C 4,4 C 87 % 1017,2 hPa 0,0 l/m 0 min 0 min 0 W/m 6,4 km/h (2 Bft) 95,74 %
26.12.2022 16:56 7,1 C 6,1 C 3,9 C 87 % 1017,3 hPa 0,0 l/m 0 min 0 min 0 W/m 9,7 km/h (2 Bft) 91,49 %
26.12.2022 16:58 7,1 C 6,1 C 3,9 C 87 % 1017,3 hPa 0,0 l/m 0 min 0 min 0 W/m 6,4 km/h (2 Bft) 97,87 %
26.12.2022 17:00 7,1 C 6,1 C 3,9 C 87 % 1017,4 hPa 0,0 l/m 0 min 0 min 0 W/m 9,7 km/h (2 Bft) 95,65 %
26.12.2022 17:02 7,1 C 6,1 C 3,9 C 87 % 1017,4 hPa 0,0 l/m 0 min 0 min 0 W/m 6,4 km/h (2 Bft) 93,62 %
26.12.2022 17:04 7,1 C 6,1 C 3,9 C 88 % 1017,3 hPa 0,0 l/m 0 min 0 min 0 W/m 6,4 km/h (2 Bft) 97,87 %
26.12.2022 17:06 7,0 C 6,1 C 3,9 C 88 % 1017,3 hPa 0,0 l/m 0 min 0 min 0 W/m 9,7 km/h (2 Bft) 97,87 %
26.12.2022 17:08 7,0 C 6,1 C 3,9 C 87 % 1017,3 hPa 0,0 l/m 0 min 0 min 0 W/m 12,9 km/h (3 Bft) 95,74 %
26.12.2022 17:10 6,9 C 6,1 C 3,9 C 87 % 1017,4 hPa 0,0 l/m 0 min 0 min 0 W/m 6,4 km/h (2 Bft) 95,65 %
26.12.2022 17:12 6,9 C 6,1 C 3,9 C 87 % 1017,4 hPa 0,0 l/m 0 min 0 min 0 W/m 9,7 km/h (2 Bft) 97,87 %
26.12.2022 17:14 6,9 C 6,1 C 3,9 C 87 % 1017,5 hPa 0,0 l/m 0 min 0 min 0 W/m 22,5 km/h (4 Bft) 95,74 %
26.12.2022 17:16 6,8 C 6,1 C 3,9 C 87 % 1017,5 hPa 0,0 l/m 0 min 0 min 0 W/m 9,7 km/h (2 Bft) 97,87 %
26.12.2022 17:18 6,8 C 6,1 C 3,9 C 87 % 1017,5 hPa 0,0 l/m 0 min 0 min 0 W/m 9,7 km/h (2 Bft) 97,87 %
26.12.2022 17:20 6,8 C 6,1 C 3,9 C 87 % 1017,6 hPa 0,0 l/m 0 min 0 min 0 W/m 12,9 km/h (3 Bft) 93,62 %
26.12.2022 17:22 6,7 C 6,1 C 3,9 C 87 % 1017,6 hPa 0,0 l/m 0 min 0 min 0 W/m 12,9 km/h (3 Bft) 97,87 %
26.12.2022 17:24 6,7 C 5,6 C 3,3 C 87 % 1017,7 hPa 0,0 l/m 0 min 0 min 0 W/m 16,1 km/h (3 Bft) 97,83 %
26.12.2022 17:26 6,6 C 5,6 C 3,3 C 87 % 1017,7 hPa 0,0 l/m 0 min 0 min 0 W/m 12,9 km/h (3 Bft) 95,74 %
26.12.2022 17:28 6,5 C 5,6 C 3,3 C 87 % 1017,8 hPa 0,0 l/m 0 min 0 min 0 W/m 16,1 km/h (3 Bft) 97,87 %
26.12.2022 17:30 6,4 C 5,6 C 3,3 C 87 % 1017,8 hPa 0,0 l/m 0 min 0 min 0 W/m 12,9 km/h (3 Bft) 97,87 %
26.12.2022 17:32 6,4 C 5,6 C 3,3 C 87 % 1017,8 hPa 0,0 l/m 0 min 0 min 0 W/m 16,1 km/h (3 Bft) 95,74 %
26.12.2022 17:34 6,3 C 5,6 C 3,3 C 86 % 1017,8 hPa 0,0 l/m 0 min 0 min 0 W/m 16,1 km/h (3 Bft) 95,74 %
26.12.2022 17:36 6,2 C 5,6 C 3,3 C 86 % 1017,8 hPa 0,0 l/m 0 min 0 min 0 W/m 19,3 km/h (3 Bft) 97,83 %
26.12.2022 17:38 6,2 C 5,6 C 3,3 C 86 % 1017,8 hPa 0,0 l/m 0 min 0 min 0 W/m 16,1 km/h (3 Bft) 95,74 %
26.12.2022 17:40 6,1 C 5,6 C 3,3 C 86 % 1017,9 hPa 0,0 l/m 0 min 0 min 0 W/m 16,1 km/h (3 Bft) 95,74 %
26.12.2022 17:42 6,1 C 5,0 C 2,8 C 85 % 1018,0 hPa 0,0 l/m 0 min 0 min 0 W/m 12,9 km/h (3 Bft) 95,74 %
26.12.2022 17:44 6,0 C 5,0 C 2,8 C 85 % 1018,0 hPa 0,0 l/m 0 min 0 min 0 W/m 16,1 km/h (3 Bft) 95,74 %
26.12.2022 17:46 6,0 C 5,0 C 2,8 C 85 % 1018,0 hPa 0,0 l/m 0 min 0 min 0 W/m 22,5 km/h (4 Bft) 97,87 %
26.12.2022 17:48 5,9 C 5,0 C 2,8 C 85 % 1017,9 hPa 0,0 l/m 0 min 0 min 0 W/m 16,1 km/h (3 Bft) 97,87 %
26.12.2022 17:50 5,9 C 5,0 C 2,8 C 85 % 1018,0 hPa 0,0 l/m 0 min 0 min 0 W/m 12,9 km/h (3 Bft) 95,65 %
26.12.2022 17:52 5,8 C 5,0 C 2,8 C 85 % 1018,0 hPa 0,0 l/m 0 min 0 min 0 W/m 12,9 km/h (3 Bft) 97,87 %
26.12.2022 17:54 5,8 C 5,0 C 2,8 C 85 % 1018,1 hPa 0,0 l/m 0 min 0 min 0 W/m 12,9 km/h (3 Bft) 95,74 %
26.12.2022 17:56 5,8 C 5,0 C 2,8 C 85 % 1018,1 hPa 0,0 l/m 0 min 0 min 0 W/m 9,7 km/h (2 Bft) 97,87 %
26.12.2022 17:58 5,7 C 5,0 C 2,8 C 85 % 1018,2 hPa 0,0 l/m 0 min 0 min 0 W/m 16,1 km/h (3 Bft) 97,87 %
26.12.2022 18:00 5,7 C 5,0 C 2,8 C 85 % 1018,2 hPa 0,0 l/m 0 min 0 min 0 W/m 9,7 km/h (2 Bft) 97,87 %
26.12.2022 18:02 5,6 C 5,0 C 2,8 C 85 % 1018,3 hPa 0,0 l/m 0 min 0 min 0 W/m 12,9 km/h (3 Bft) 97,83 %
26.12.2022 18:04 5,6 C 5,0 C 2,8 C 85 % 1018,3 hPa 0,0 l/m 0 min 0 min 0 W/m 12,9 km/h (3 Bft) 97,87 %
26.12.2022 18:08 5,5 C 4,4 C 2,2 C 85 % 1018,3 hPa 0,0 l/m 0 min 0 min 0 W/m 12,9 km/h (3 Bft) 98,94 %
26.12.2022 18:10 5,4 C 4,4 C 2,2 C 85 % 1018,3 hPa 0,0 l/m 0 min 0 min 0 W/m 12,9 km/h (3 Bft) 100,00 %
26.12.2022 18:12 5,4 C 4,4 C 2,2 C 85 % 1018,4 hPa 0,0 l/m 0 min 0 min 0 W/m 16,1 km/h (3 Bft) 95,74 %
26.12.2022 18:14 5,4 C 4,4 C 2,2 C 86 % 1018,5 hPa 0,0 l/m 0 min 0 min 0 W/m 12,9 km/h (3 Bft) 100,00 %
26.12.2022 18:16 5,4 C 4,4 C 2,2 C 86 % 1018,5 hPa 0,0 l/m 0 min 0 min 0 W/m 9,7 km/h (2 Bft) 97,87 %
26.12.2022 18:18 5,3 C 4,4 C 2,2 C 86 % 1018,6 hPa 0,0 l/m 0 min 0 min 0 W/m 12,9 km/h (3 Bft) 100,00 %
26.12.2022 18:20 5,3 C 4,4 C 2,2 C 86 % 1018,5 hPa 0,0 l/m 0 min 0 min 0 W/m 12,9 km/h (3 Bft) 100,00 %
26.12.2022 18:22 5,3 C 4,4 C 2,2 C 86 % 1018,6 hPa 0,0 l/m 0 min 0 min 0 W/m 6,4 km/h (2 Bft) 97,87 %
26.12.2022 18:24 5,3 C 4,4 C 2,2 C 86 % 1018,6 hPa 0,0 l/m 0 min 0 min 0 W/m 16,1 km/h (3 Bft) 97,87 %
26.12.2022 18:26 5,2 C 4,4 C 2,2 C 86 % 1018,5 hPa 0,0 l/m 0 min 0 min 0 W/m 12,9 km/h (3 Bft) 95,74 %
26.12.2022 18:28 5,2 C 4,4 C 2,2 C 86 % 1018,6 hPa 0,0 l/m 0 min 0 min 0 W/m 12,9 km/h (3 Bft) 97,83 %
26.12.2022 18:30 5,2 C 4,4 C 2,2 C 86 % 1018,7 hPa 0,0 l/m 0 min 0 min 0 W/m 12,9 km/h (3 Bft) 97,87 %
26.12.2022 18:32 5,1 C 4,4 C 2,2 C 86 % 1018,7 hPa 0,0 l/m 0 min 0 min 0 W/m 12,9 km/h (3 Bft) 97,87 %
26.12.2022 18:34 5,1 C 4,4 C 2,2 C 86 % 1018,7 hPa 0,0 l/m 0 min 0 min 0 W/m 12,9 km/h (3 Bft) 97,87 %
26.12.2022 18:36 5,1 C 4,4 C 1,7 C 86 % 1018,7 hPa 0,0 l/m 0 min 0 min 0 W/m 19,3 km/h (3 Bft) 95,74 %
26.12.2022 18:38 5,1 C 4,4 C 2,2 C 86 % 1018,7 hPa 0,0 l/m 0 min 0 min 0 W/m 12,9 km/h (3 Bft) 95,74 %
26.12.2022 18:40 5,0 C 4,4 C 2,2 C 86 % 1018,7 hPa 0,0 l/m 0 min 0 min 0 W/m 9,7 km/h (2 Bft) 93,48 %
26.12.2022 18:42 5,0 C 4,4 C 1,7 C 87 % 1018,7 hPa 0,0 l/m 0 min 0 min 0 W/m 16,1 km/h (3 Bft) 93,62 %
26.12.2022 18:44 4,9 C 3,9 C 1,7 C 87 % 1018,7 hPa 0,0 l/m 0 min 0 min 0 W/m 9,7 km/h (2 Bft) 93,62 %
26.12.2022 18:46 4,9 C 3,9 C 1,7 C 87 % 1018,7 hPa 0,0 l/m 0 min 0 min 0 W/m 6,4 km/h (2 Bft) 95,74 %
26.12.2022 18:48 4,9 C 3,9 C 1,7 C 87 % 1018,8 hPa 0,0 l/m 0 min 0 min 0 W/m 16,1 km/h (3 Bft) 95,74 %
26.12.2022 18:50 4,8 C 3,9 C 1,7 C 87 % 1018,9 hPa 0,0 l/m 0 min 0 min 0 W/m 6,4 km/h (2 Bft) 91,49 %
26.12.2022 18:52 4,8 C 3,9 C 1,7 C 87 % 1018,9 hPa 0,0 l/m 0 min 0 min 0 W/m 12,9 km/h (3 Bft) 95,74 %
26.12.2022 18:54 4,8 C 3,9 C 1,7 C 87 % 1018,9 hPa 0,0 l/m 0 min 0 min 0 W/m 6,4 km/h (2 Bft) 95,65 %
26.12.2022 18:56 4,8 C 3,9 C 1,7 C 87 % 1018,9 hPa 0,0 l/m 0 min 0 min 0 W/m 19,3 km/h (3 Bft) 93,62 %
26.12.2022 18:58 4,8 C 3,9 C 1,7 C 87 % 1018,9 hPa 0,0 l/m 0 min 0 min 0 W/m 6,4 km/h (2 Bft) 93,62 %
26.12.2022 19:00 4,7 C 3,9 C 1,7 C 87 % 1019,0 hPa 0,0 l/m 0 min 0 min 0 W/m 9,7 km/h (2 Bft) 95,74 %
26.12.2022 19:02 4,7 C 3,9 C 1,7 C 87 % 1019,1 hPa 0,0 l/m 0 min 0 min 0 W/m 6,4 km/h (2 Bft) 95,74 %
26.12.2022 19:04 4,7 C 3,9 C 1,7 C 87 % 1019,1 hPa 0,0 l/m 0 min 0 min 0 W/m 12,9 km/h (3 Bft) 95,74 %
26.12.2022 19:06 4,7 C 3,9 C 1,7 C 87 % 1019,1 hPa 0,0 l/m 0 min 0 min 0 W/m 12,9 km/h (3 Bft) 97,83 %
26.12.2022 19:08 4,6 C 3,9 C 1,7 C 87 % 1019,2 hPa 0,0 l/m 0 min 0 min 0 W/m 12,9 km/h (3 Bft) 97,87 %
26.12.2022 19:10 4,6 C 3,9 C 1,7 C 87 % 1019,2 hPa 0,0 l/m 0 min 0 min 0 W/m 6,4 km/h (2 Bft) 97,87 %
26.12.2022 19:12 4,6 C 3,9 C 1,7 C 87 % 1019,2 hPa 0,0 l/m 0 min 0 min 0 W/m 12,9 km/h (3 Bft) 97,87 %
26.12.2022 19:14 4,6 C 3,9 C 1,7 C 87 % 1019,2 hPa 0,0 l/m 0 min 0 min 0 W/m 9,7 km/h (2 Bft) 93,62 %
26.12.2022 19:16 4,6 C 3,9 C 1,7 C 87 % 1019,1 hPa 0,0 l/m 0 min 0 min 0 W/m 16,1 km/h (3 Bft) 97,87 %
26.12.2022 19:18 4,6 C 3,9 C 1,7 C 87 % 1019,1 hPa 0,0 l/m 0 min 0 min 0 W/m 6,4 km/h (2 Bft) 97,83 %
26.12.2022 19:20 4,5 C 3,9 C 1,7 C 87 % 1019,2 hPa 0,0 l/m 0 min 0 min 0 W/m 12,9 km/h (3 Bft) 97,87 %
26.12.2022 19:22 4,5 C 3,9 C 1,7 C 87 % 1019,3 hPa 0,0 l/m 0 min 0 min 0 W/m 12,9 km/h (3 Bft) 95,74 %
26.12.2022 19:24 4,4 C 3,9 C 1,7 C 87 % 1019,4 hPa 0,0 l/m 0 min 0 min 0 W/m 6,4 km/h (2 Bft) 95,74 %
26.12.2022 19:26 4,4 C 3,9 C 1,7 C 87 % 1019,5 hPa 0,0 l/m 0 min 0 min 0 W/m 6,4 km/h (2 Bft) 97,87 %
26.12.2022 19:28 4,4 C 3,3 C 1,1 C 87 % 1019,5 hPa 0,0 l/m 0 min 0 min 0 W/m 6,4 km/h (2 Bft) 95,74 %
26.12.2022 19:30 4,4 C 3,3 C 1,1 C 87 % 1019,6 hPa 0,0 l/m 0 min 0 min 0 W/m 6,4 km/h (2 Bft) 100,00 %
26.12.2022 19:32 4,4 C 3,3 C 1,1 C 87 % 1019,6 hPa 0,0 l/m 0 min 0 min 0 W/m 9,7 km/h (2 Bft) 97,83 %
26.12.2022 19:34 4,4 C 3,3 C 1,1 C 87 % 1019,6 hPa 0,0 l/m 0 min 0 min 0 W/m 6,4 km/h (2 Bft) 97,87 %
26.12.2022 19:36 4,3 C 3,3 C 1,1 C 87 % 1019,7 hPa 0,0 l/m 0 min 0 min 0 W/m 12,9 km/h (3 Bft) 100,00 %
26.12.2022 19:38 4,3 C 3,3 C 1,1 C 87 % 1019,8 hPa 0,0 l/m 0 min 0 min 0 W/m 9,7 km/h (2 Bft) 93,62 %
26.12.2022 19:40 4,3 C 3,3 C 1,1 C 87 % 1019,7 hPa 0,0 l/m 0 min 0 min 0 W/m 6,4 km/h (2 Bft) 97,87 %
26.12.2022 19:42 4,3 C 3,3 C 1,1 C 87 % 1019,7 hPa 0,0 l/m 0 min 0 min 0 W/m 9,7 km/h (2 Bft) 100,00 %
26.12.2022 19:44 4,3 C 3,3 C 1,1 C 87 % 1019,9 hPa 0,0 l/m 0 min 0 min 0 W/m 12,9 km/h (3 Bft) 95,74 %
26.12.2022 19:46 4,3 C 3,3 C 1,1 C 87 % 1019,9 hPa 0,0 l/m 0 min 0 min 0 W/m 6,4 km/h (2 Bft) 97,83 %
26.12.2022 19:48 4,2 C 3,3 C 1,1 C 87 % 1019,9 hPa 0,0 l/m 0 min 0 min 0 W/m 6,4 km/h (2 Bft) 97,87 %
26.12.2022 19:50 4,2 C 3,3 C 1,1 C 87 % 1019,9 hPa 0,0 l/m 0 min 0 min 0 W/m 6,4 km/h (2 Bft) 95,74 %
26.12.2022 19:52 4,2 C 3,3 C 1,1 C 87 % 1019,9 hPa 0,0 l/m 0 min 0 min 0 W/m 9,7 km/h (2 Bft) 97,87 %
26.12.2022 19:54 4,2 C 3,3 C 1,1 C 87 % 1019,9 hPa 0,0 l/m 0 min 0 min 0 W/m 6,4 km/h (2 Bft) 97,87 %
26.12.2022 19:56 4,1 C 3,3 C 1,1 C 87 % 1020,0 hPa 0,0 l/m 0 min 0 min 0 W/m 12,9 km/h (3 Bft) 97,87 %
26.12.2022 19:58 4,1 C 3,3 C 1,1 C 87 % 1020,0 hPa 0,0 l/m 0 min 0 min 0 W/m 12,9 km/h (3 Bft) 97,96 %
26.12.2022 20:00 4,1 C 3,3 C 1,1 C 87 % 1020,0 hPa 0,0 l/m 0 min 0 min 0 W/m 12,9 km/h (3 Bft) 97,22 %
26.12.2022 20:02 4,1 C 3,3 C 1,1 C 88 % 1020,1 hPa 0,0 l/m 0 min 0 min 0 W/m 12,9 km/h (3 Bft) 98,11 %
26.12.2022 20:04 4,1 C 3,3 C 1,1 C 88 % 1020,1 hPa 0,0 l/m 0 min 0 min 0 W/m 12,9 km/h (3 Bft) 98,00 %
26.12.2022 20:06 4,1 C 3,3 C 1,1 C 88 % 1020,1 hPa 0,0 l/m 0 min 0 min 0 W/m 12,9 km/h (3 Bft) 96,00 %
26.12.2022 20:08 4,1 C 3,3 C 1,1 C 88 % 1020,1 hPa 0,0 l/m 0 min 0 min 0 W/m 12,9 km/h (3 Bft) 97,87 %
26.12.2022 20:10 4,1 C 3,3 C 1,1 C 88 % 1020,2 hPa 0,0 l/m 0 min 0 min 0 W/m 12,9 km/h (3 Bft) 95,65 %
26.12.2022 20:12 4,0 C 3,3 C 1,1 C 88 % 1020,3 hPa 0,0 l/m 0 min 0 min 0 W/m 6,4 km/h (2 Bft) 97,87 %
26.12.2022 20:14 4,0 C 3,3 C 1,1 C 88 % 1020,3 hPa 0,0 l/m 0 min 0 min 0 W/m 12,9 km/h (3 Bft) 97,87 %
26.12.2022 20:16 4,0 C 3,3 C 1,1 C 88 % 1020,3 hPa 0,0 l/m 0 min 0 min 0 W/m 12,9 km/h (3 Bft) 95,74 %
26.12.2022 20:18 3,9 C 3,3 C 1,1 C 88 % 1020,4 hPa 0,0 l/m 0 min 0 min 0 W/m 12,9 km/h (3 Bft) 93,62 %
26.12.2022 20:20 3,9 C 3,3 C 1,1 C 88 % 1020,5 hPa 0,0 l/m 0 min 0 min 0 W/m 6,4 km/h (2 Bft) 97,87 %
26.12.2022 20:22 3,9 C 3,3 C 1,1 C 88 % 1020,5 hPa 0,0 l/m 0 min 0 min 0 W/m 12,9 km/h (3 Bft) 97,83 %
26.12.2022 20:24 3,9 C 3,3 C 0,6 C 88 % 1020,5 hPa 0,0 l/m 0 min 0 min 0 W/m 12,9 km/h (3 Bft) 97,87 %
26.12.2022 20:26 3,9 C 2,8 C 0,6 C 88 % 1020,5 hPa 0,0 l/m 0 min 0 min 0 W/m 6,4 km/h (2 Bft) 97,87 %
26.12.2022 20:28 3,8 C 2,8 C 1,1 C 88 % 1020,6 hPa 0,0 l/m 0 min 0 min 0 W/m 12,9 km/h (3 Bft) 97,87 %
26.12.2022 20:30 3,8 C 2,8 C 0,6 C 88 % 1020,6 hPa 0,0 l/m 0 min 0 min 0 W/m 12,9 km/h (3 Bft) 95,74 %
26.12.2022 20:32 3,8 C 2,8 C 0,6 C 88 % 1020,6 hPa 0,0 l/m 0 min 0 min 0 W/m 6,4 km/h (2 Bft) 95,74 %
26.12.2022 20:34 3,8 C 2,8 C 0,6 C 88 % 1020,6 hPa 0,0 l/m 0 min 0 min 0 W/m 9,7 km/h (2 Bft) 95,74 %
26.12.2022 20:36 3,8 C 2,8 C 0,6 C 88 % 1020,6 hPa 0,0 l/m 0 min 0 min 0 W/m 6,4 km/h (2 Bft) 97,83 %
26.12.2022 20:38 3,8 C 2,8 C 0,6 C 88 % 1020,7 hPa 0,0 l/m 0 min 0 min 0 W/m 12,9 km/h (3 Bft) 97,87 %
26.12.2022 20:40 3,8 C 2,8 C 0,6 C 88 % 1020,7 hPa 0,0 l/m 0 min 0 min 0 W/m 6,4 km/h (2 Bft) 97,87 %
26.12.2022 20:42 3,7 C 2,8 C 0,6 C 88 % 1020,7 hPa 0,0 l/m 0 min 0 min 0 W/m 6,4 km/h (2 Bft) 97,87 %
26.12.2022 20:44 3,7 C 2,8 C 0,6 C 88 % 1020,8 hPa 0,0 l/m 0 min 0 min 0 W/m 6,4 km/h (2 Bft) 95,74 %
26.12.2022 20:46 3,7 C 2,8 C 0,6 C 88 % 1020,8 hPa 0,0 l/m 0 min 0 min 0 W/m 9,7 km/h (2 Bft) 95,74 %
26.12.2022 20:48 3,7 C 2,8 C 0,6 C 88 % 1020,8 hPa 0,0 l/m 0 min 0 min 0 W/m 9,7 km/h (2 Bft) 100,00 %
26.12.2022 20:50 3,7 C 2,8 C 0,6 C 88 % 1020,8 hPa 0,0 l/m 0 min 0 min 0 W/m 6,4 km/h (2 Bft) 97,83 %
26.12.2022 20:52 3,6 C 2,8 C 0,6 C 88 % 1020,8 hPa 0,0 l/m 0 min 0 min 0 W/m 9,7 km/h (2 Bft) 100,00 %
26.12.2022 20:54 3,6 C 2,8 C 0,6 C 88 % 1020,8 hPa 0,0 l/m 0 min 0 min 0 W/m 12,9 km/h (3 Bft) 100,00 %
26.12.2022 20:56 3,6 C 2,8 C 0,6 C 88 % 1020,8 hPa 0,0 l/m 0 min 0 min 0 W/m 9,7 km/h (2 Bft) 100,00 %
26.12.2022 20:58 3,6 C 2,8 C 0,6 C 88 % 1020,9 hPa 0,0 l/m 0 min 0 min 0 W/m 9,7 km/h (2 Bft) 97,87 %
26.12.2022 21:00 3,6 C 2,8 C 0,6 C 88 % 1020,9 hPa 0,0 l/m 0 min 0 min 0 W/m 6,4 km/h (2 Bft) 95,74 %
26.12.2022 21:02 3,6 C 2,8 C 0,6 C 89 % 1020,9 hPa 0,0 l/m 0 min 0 min 0 W/m 19,3 km/h (3 Bft) 100,00 %
26.12.2022 21:04 3,6 C 2,8 C 0,6 C 89 % 1020,9 hPa 0,0 l/m 0 min 0 min 0 W/m 16,1 km/h (3 Bft) 100,00 %
26.12.2022 21:06 3,6 C 2,8 C 0,6 C 89 % 1020,9 hPa 0,0 l/m 0 min 0 min 0 W/m 6,4 km/h (2 Bft) 100,00 %
26.12.2022 21:08 3,6 C 2,8 C 0,6 C 89 % 1020,9 hPa 0,0 l/m 0 min 0 min 0 W/m 9,7 km/h (2 Bft) 97,87 %
26.12.2022 21:10 3,6 C 2,8 C 0,6 C 89 % 1021,0 hPa 0,0 l/m 0 min 0 min 0 W/m 12,9 km/h (3 Bft) 100,00 %
26.12.2022 21:12 3,6 C 2,8 C 0,6 C 89 % 1021,1 hPa 0,0 l/m 0 min 0 min 0 W/m 9,7 km/h (2 Bft) 100,00 %
26.12.2022 21:14 3,6 C 2,8 C 0,6 C 89 % 1021,1 hPa 0,0 l/m 0 min 0 min 0 W/m 12,9 km/h (3 Bft) 97,83 %
26.12.2022 21:16 3,6 C 2,8 C 0,6 C 89 % 1021,1 hPa 0,0 l/m 0 min 0 min 0 W/m 12,9 km/h (3 Bft) 100,00 %
26.12.2022 21:18 3,6 C 2,8 C 0,6 C 89 % 1021,1 hPa 0,0 l/m 0 min 0 min 0 W/m 12,9 km/h (3 Bft) 100,00 %
26.12.2022 21:20 3,6 C 2,8 C 0,6 C 88 % 1021,1 hPa 0,0 l/m 0 min 0 min 0 W/m 12,9 km/h (3 Bft) 100,00 %
26.12.2022 21:22 3,6 C 2,8 C 0,6 C 88 % 1021,1 hPa 0,0 l/m 0 min 0 min 0 W/m 6,4 km/h (2 Bft) 100,00 %
26.12.2022 21:24 3,6 C 2,8 C 0,6 C 88 % 1021,1 hPa 0,0 l/m 0 min 0 min 0 W/m 6,4 km/h (2 Bft) 97,87 %
26.12.2022 21:26 3,6 C 2,8 C 0,6 C 88 % 1021,3 hPa 0,0 l/m 0 min 0 min 0 W/m 12,9 km/h (3 Bft) 100,00 %
26.12.2022 21:28 3,6 C 2,8 C 0,6 C 88 % 1021,2 hPa 0,0 l/m 0 min 0 min 0 W/m 12,9 km/h (3 Bft) 100,00 %
26.12.2022 21:30 3,6 C 2,8 C 0,6 C 88 % 1021,3 hPa 0,0 l/m 0 min 0 min 0 W/m 12,9 km/h (3 Bft) 100,00 %
26.12.2022 21:32 3,5 C 2,8 C 0,6 C 88 % 1021,3 hPa 0,0 l/m 0 min 0 min 0 W/m 6,4 km/h (2 Bft) 100,00 %
26.12.2022 21:34 3,5 C 2,8 C 0,6 C 88 % 1021,3 hPa 0,0 l/m 0 min 0 min 0 W/m 12,9 km/h (3 Bft) 100,00 %
26.12.2022 21:36 3,5 C 2,8 C 0,6 C 88 % 1021,3 hPa 0,0 l/m 0 min 0 min 0 W/m 12,9 km/h (3 Bft) 100,00 %
26.12.2022 21:38 3,6 C 2,8 C 0,6 C 88 % 1021,3 hPa 0,0 l/m 0 min 0 min 0 W/m 12,9 km/h (3 Bft) 100,00 %
26.12.2022 21:40 3,5 C 2,8 C 0,6 C 88 % 1021,3 hPa 0,0 l/m 0 min 0 min 0 W/m 9,7 km/h (2 Bft) 93,48 %
26.12.2022 21:42 3,5 C 2,8 C 0,6 C 88 % 1021,3 hPa 0,0 l/m 0 min 0 min 0 W/m 16,1 km/h (3 Bft) 100,00 %
26.12.2022 21:44 3,5 C 2,8 C 0,6 C 88 % 1021,3 hPa 0,0 l/m 0 min 0 min 0 W/m 12,9 km/h (3 Bft) 97,87 %
26.12.2022 21:46 3,6 C 2,8 C 0,6 C 88 % 1021,3 hPa 0,0 l/m 0 min 0 min 0 W/m 9,7 km/h (2 Bft) 97,87 %
26.12.2022 21:48 3,6 C 2,8 C 0,6 C 88 % 1021,3 hPa 0,0 l/m 0 min 0 min 0 W/m 12,9 km/h (3 Bft) 97,87 %
26.12.2022 21:50 3,6 C 2,8 C 0,6 C 88 % 1021,2 hPa 0,0 l/m 0 min 0 min 0 W/m 9,7 km/h (2 Bft) 97,87 %
26.12.2022 21:52 3,6 C 2,8 C 0,6 C 88 % 1021,4 hPa 0,0 l/m 0 min 0 min 0 W/m 12,9 km/h (3 Bft) 97,83 %
26.12.2022 21:54 3,6 C 2,8 C 0,6 C 88 % 1021,3 hPa 0,0 l/m 0 min 0 min 0 W/m 9,7 km/h (2 Bft) 95,74 %
26.12.2022 21:56 3,6 C 2,8 C 0,6 C 88 % 1021,3 hPa 0,0 l/m 0 min 0 min 0 W/m 12,9 km/h (3 Bft) 91,49 %
26.12.2022 21:58 3,6 C 2,8 C 0,6 C 88 % 1021,4 hPa 0,0 l/m 0 min 0 min 0 W/m 12,9 km/h (3 Bft) 94,59 %
26.12.2022 22:00 3,6 C 2,8 C 0,6 C 88 % 1021,4 hPa 0,0 l/m 0 min 0 min 0 W/m 12,9 km/h (3 Bft) 95,74 %
26.12.2022 22:02 3,6 C 3,3 C 0,6 C 88 % 1021,4 hPa 0,0 l/m 0 min 0 min 0 W/m 16,1 km/h (3 Bft) 95,74 %
26.12.2022 22:04 3,6 C 3,3 C 0,6 C 88 % 1021,4 hPa 0,0 l/m 0 min 0 min 0 W/m 16,1 km/h (3 Bft) 93,62 %
26.12.2022 22:06 3,7 C 3,3 C 0,6 C 88 % 1021,4 hPa 0,0 l/m 0 min 0 min 0 W/m 12,9 km/h (3 Bft) 91,38 %
26.12.2022 22:08 3,7 C 3,3 C 0,6 C 87 % 1021,4 hPa 0,0 l/m 0 min 0 min 0 W/m 12,9 km/h (3 Bft) 94,29 %
26.12.2022 22:10 3,7 C 3,3 C 0,6 C 87 % 1021,4 hPa 0,0 l/m 0 min 0 min 0 W/m 19,3 km/h (3 Bft) 91,49 %
26.12.2022 22:12 3,7 C 3,3 C 0,6 C 87 % 1021,5 hPa 0,0 l/m 0 min 0 min 0 W/m 12,9 km/h (3 Bft) 91,49 %
26.12.2022 22:14 3,7 C 3,3 C 0,6 C 87 % 1021,5 hPa 0,0 l/m 0 min 0 min 0 W/m 19,3 km/h (3 Bft) 91,49 %
26.12.2022 22:16 3,7 C 3,3 C 0,6 C 87 % 1021,6 hPa 0,0 l/m 0 min 0 min 0 W/m 12,9 km/h (3 Bft) 91,49 %
26.12.2022 22:18 3,8 C 3,3 C 0,6 C 87 % 1021,6 hPa 0,0 l/m 0 min 0 min 0 W/m 12,9 km/h (3 Bft) 91,49 %
26.12.2022 22:20 3,8 C 3,3 C 0,6 C 87 % 1021,7 hPa 0,0 l/m 0 min 0 min 0 W/m 16,1 km/h (3 Bft) 93,62 %
26.12.2022 22:22 3,8 C 3,3 C 0,6 C 87 % 1021,7 hPa 0,0 l/m 0 min 0 min 0 W/m 22,5 km/h (4 Bft) 93,48 %
26.12.2022 22:24 3,8 C 3,3 C 0,6 C 87 % 1021,6 hPa 0,0 l/m 0 min 0 min 0 W/m 16,1 km/h (3 Bft) 93,62 %
26.12.2022 22:26 3,8 C 3,3 C 0,6 C 87 % 1021,6 hPa 0,0 l/m 0 min 0 min 0 W/m 12,9 km/h (3 Bft) 93,62 %
26.12.2022 22:28 3,8 C 3,3 C 1,1 C 87 % 1021,7 hPa 0,0 l/m 0 min 0 min 0 W/m 19,3 km/h (3 Bft) 91,49 %
26.12.2022 22:30 3,8 C 3,3 C 1,1 C 87 % 1021,7 hPa 0,0 l/m 0 min 2 min 0 W/m 9,7 km/h (2 Bft) 93,62 %
26.12.2022 22:32 3,9 C 3,3 C 1,1 C 87 % 1021,7 hPa 0,0 l/m 0 min 0 min 0 W/m 12,9 km/h (3 Bft) 91,49 %
26.12.2022 22:34 3,9 C 3,3 C 0,6 C 87 % 1021,8 hPa 0,0 l/m 0 min 0 min 0 W/m 16,1 km/h (3 Bft) 95,65 %
26.12.2022 22:36 3,9 C 3,3 C 0,6 C 87 % 1021,7 hPa 0,0 l/m 0 min 0 min 0 W/m 16,1 km/h (3 Bft) 97,87 %
26.12.2022 22:38 3,9 C 3,3 C 0,6 C 87 % 1021,7 hPa 0,0 l/m 0 min 0 min 0 W/m 6,4 km/h (2 Bft) 97,87 %
26.12.2022 22:40 3,9 C 3,3 C 0,6 C 87 % 1021,7 hPa 0,0 l/m 0 min 0 min 0 W/m 9,7 km/h (2 Bft) 97,87 %
26.12.2022 22:42 3,9 C 3,3 C 0,6 C 87 % 1021,8 hPa 0,0 l/m 0 min 0 min 0 W/m 16,1 km/h (3 Bft) 97,87 %
26.12.2022 22:44 3,9 C 3,3 C 0,6 C 87 % 1021,8 hPa 0,0 l/m 0 min 0 min 0 W/m 19,3 km/h (3 Bft) 93,62 %
26.12.2022 22:46 3,9 C 3,3 C 0,6 C 87 % 1021,8 hPa 0,0 l/m 0 min 0 min 0 W/m 16,1 km/h (3 Bft) 100,00 %
26.12.2022 22:48 3,8 C 2,8 C 0,6 C 87 % 1021,8 hPa 0,0 l/m 0 min 0 min 0 W/m 12,9 km/h (3 Bft) 97,83 %
26.12.2022 22:50 3,8 C 2,8 C 0,6 C 87 % 1021,9 hPa 0,0 l/m 0 min 0 min 0 W/m 22,5 km/h (4 Bft) 100,00 %
26.12.2022 22:52 3,8 C 2,8 C 0,6 C 87 % 1021,9 hPa 0,0 l/m 0 min 0 min 0 W/m 16,1 km/h (3 Bft) 95,74 %
26.12.2022 22:54 3,8 C 2,8 C 0,6 C 87 % 1021,9 hPa 0,0 l/m 0 min 0 min 0 W/m 22,5 km/h (4 Bft) 97,87 %
26.12.2022 22:56 3,8 C 2,8 C 0,6 C 87 % 1021,9 hPa 0,0 l/m 0 min 0 min 0 W/m 22,5 km/h (4 Bft) 100,00 %
26.12.2022 22:58 3,8 C 2,8 C 0,6 C 87 % 1022,0 hPa 0,0 l/m 0 min 0 min 0 W/m 16,1 km/h (3 Bft) 57,45 %
26.12.2022 23:00 3,8 C 2,8 C 0,6 C 87 % 1021,9 hPa 0,0 l/m 0 min 0 min 0 W/m 12,9 km/h (3 Bft) 100,00 %
26.12.2022 23:02 3,8 C 2,8 C 0,6 C 87 % 1022,0 hPa 0,0 l/m 0 min 0 min 0 W/m 9,7 km/h (2 Bft) 93,48 %
26.12.2022 23:04 3,8 C 2,8 C 0,6 C 87 % 1022,0 hPa 0,0 l/m 0 min 0 min 0 W/m 16,1 km/h (3 Bft) 100,00 %
26.12.2022 23:06 3,8 C 2,8 C 0,6 C 87 % 1022,0 hPa 0,0 l/m 0 min 0 min 0 W/m 12,9 km/h (3 Bft) 100,00 %
26.12.2022 23:08 3,8 C 2,8 C 0,6 C 87 % 1022,0 hPa 0,0 l/m 0 min 0 min 0 W/m 16,1 km/h (3 Bft) 95,74 %
26.12.2022 23:10 3,8 C 3,3 C 0,6 C 87 % 1022,1 hPa 0,0 l/m 0 min 0 min 0 W/m 22,5 km/h (4 Bft) 100,00 %
26.12.2022 23:12 3,8 C 3,3 C 0,6 C 87 % 1022,2 hPa 0,0 l/m 0 min 0 min 0 W/m 22,5 km/h (4 Bft) 100,00 %
26.12.2022 23:14 3,8 C 3,3 C 0,6 C 87 % 1022,2 hPa 0,0 l/m 0 min 0 min 0 W/m 22,5 km/h (4 Bft) 97,83 %
26.12.2022 23:16 3,8 C 3,3 C 0,6 C 87 % 1022,2 hPa 0,0 l/m 0 min 0 min 0 W/m 16,1 km/h (3 Bft) 100,00 %
26.12.2022 23:18 3,8 C 3,3 C 0,6 C 87 % 1022,2 hPa 0,0 l/m 0 min 0 min 0 W/m 19,3 km/h (3 Bft) 100,00 %
26.12.2022 23:20 3,8 C 3,3 C 0,6 C 87 % 1022,1 hPa 0,0 l/m 0 min 0 min 0 W/m 9,7 km/h (2 Bft) 100,00 %
26.12.2022 23:22 3,8 C 2,8 C 0,6 C 87 % 1022,1 hPa 0,0 l/m 0 min 0 min 0 W/m 16,1 km/h (3 Bft) 100,00 %
26.12.2022 23:24 3,8 C 3,3 C 0,6 C 87 % 1022,2 hPa 0,0 l/m 0 min 0 min 0 W/m 22,5 km/h (4 Bft) 100,00 %
26.12.2022 23:26 3,8 C 3,3 C 0,6 C 87 % 1022,1 hPa 0,0 l/m 0 min 0 min 0 W/m 22,5 km/h (4 Bft) 97,87 %
26.12.2022 23:28 3,8 C 3,3 C 0,6 C 87 % 1022,1 hPa 0,0 l/m 0 min 0 min 0 W/m 19,3 km/h (3 Bft) 100,00 %
26.12.2022 23:30 3,8 C 2,8 C 0,6 C 87 % 1022,2 hPa 0,0 l/m 0 min 0 min 0 W/m 16,1 km/h (3 Bft) 97,87 %
26.12.2022 23:32 3,8 C 3,3 C 0,6 C 88 % 1022,2 hPa 0,0 l/m 0 min 0 min 0 W/m 19,3 km/h (3 Bft) 97,87 %
26.12.2022 23:34 3,8 C 3,3 C 0,6 C 88 % 1022,2 hPa 0,0 l/m 0 min 0 min 0 W/m 35,4 km/h (5 Bft) 100,00 %
26.12.2022 23:36 3,8 C 3,3 C 0,6 C 88 % 1022,3 hPa 0,0 l/m 0 min 0 min 0 W/m 16,1 km/h (3 Bft) 100,00 %
26.12.2022 23:38 3,8 C 3,3 C 0,6 C 88 % 1022,3 hPa 0,0 l/m 0 min 0 min 0 W/m 19,3 km/h (3 Bft) 100,00 %
26.12.2022 23:40 3,8 C 3,3 C 0,6 C 88 % 1022,3 hPa 0,0 l/m 0 min 0 min 0 W/m 19,3 km/h (3 Bft) 100,00 %
26.12.2022 23:42 3,8 C 3,3 C 0,6 C 88 % 1022,4 hPa 0,0 l/m 0 min 0 min 0 W/m 19,3 km/h (3 Bft) 100,00 %
26.12.2022 23:44 3,8 C 3,3 C 0,6 C 88 % 1022,4 hPa 0,0 l/m 0 min 0 min 0 W/m 25,7 km/h (4 Bft) 100,00 %
26.12.2022 23:46 3,8 C 2,8 C 0,6 C 88 % 1022,4 hPa 0,0 l/m 0 min 0 min 0 W/m 16,1 km/h (3 Bft) 97,87 %
26.12.2022 23:48 3,8 C 2,8 C 0,6 C 88 % 1022,4 hPa 0,0 l/m 0 min 0 min 0 W/m 22,5 km/h (4 Bft) 100,00 %
26.12.2022 23:50 3,8 C 2,8 C 0,6 C 88 % 1022,5 hPa 0,0 l/m 0 min 0 min 0 W/m 19,3 km/h (3 Bft) 100,00 %
26.12.2022 23:52 3,8 C 2,8 C 0,6 C 88 % 1022,5 hPa 0,0 l/m 0 min 0 min 0 W/m 19,3 km/h (3 Bft) 100,00 %
26.12.2022 23:54 3,8 C 2,8 C 0,6 C 88 % 1022,5 hPa 0,0 l/m 0 min 0 min 0 W/m 22,5 km/h (4 Bft) 100,00 %
26.12.2022 23:56 3,8 C 3,3 C 0,6 C 88 % 1022,5 hPa 0,0 l/m 0 min 0 min 0 W/m 25,7 km/h (4 Bft) 97,87 %
26.12.2022 23:58 3,8 C 3,3 C 0,6 C 88 % 1022,5 hPa 0,0 l/m 0 min 0 min 0 W/m 29,0 km/h (5 Bft) 97,87 %
_ Min-Zeit 21:32 20:26 20:24 15:02 00:56 - - - - 03:28 22:58
Minimum _ 3,5 C 2,8 C 0,6 C 85 % 1010,3 hPa - - - - 0,0 km/h (0 Bft) 57,45 %
_ Max-Zeit 12:20 12:18 12:18 00:00 23:50 01:10 12:18 00:40 12:18 12:40 00:00
Maximum _ 11,1 C 11,7 C 8,9 C 99 % 1022,5 hPa 0,2 l/m 2 min 2 min 194 W/m 41,8 km/h
S (6 Bft)
100,00 %
Durchschnitt _ 8,2 C 7,6 C 5,6 C 93 % 1015,0 hPa #2,8 l/m #14 min. #2:00 h 52 W/m 12,7 km/h (3 Bft) 97,19 %
© 2022 W. Hausmann